Wetterdaten: Montag, 09.02.2015
Datum Zeit Temp. Aussen +5cm Feuchte Auss Luftdruck Regen Sonnenschein Regendauer Solar Windben
09.02.2015 00:00 2,4 C 1,1 C 91 % 1031,1 hPa 0,0 l/m 0 min 0 min 0 W/m 12,6 km/h (3 Bft)
09.02.2015 00:02 2,4 C 1,1 C 91 % 1031,2 hPa 0,0 l/m 0 min 0 min 0 W/m 10,5 km/h (2 Bft)
09.02.2015 00:05 2,5 C 1,7 C 91 % 1031,1 hPa 0,0 l/m 0 min 0 min 0 W/m 8,4 km/h (2 Bft)
09.02.2015 00:06 2,5 C 1,7 C 91 % 1031,2 hPa 0,0 l/m 0 min 0 min 0 W/m 10,5 km/h (2 Bft)
09.02.2015 00:08 2,5 C 1,7 C 91 % 1031,2 hPa 0,0 l/m 0 min 0 min 0 W/m 10,5 km/h (2 Bft)
09.02.2015 00:10 2,5 C 1,7 C 91 % 1031,2 hPa 0,0 l/m 0 min 0 min 0 W/m 14,6 km/h (3 Bft)
09.02.2015 00:12 2,6 C 1,7 C 91 % 1031,2 hPa 0,0 l/m 0 min 0 min 0 W/m 14,6 km/h (3 Bft)
09.02.2015 00:14 2,6 C 1,7 C 91 % 1031,1 hPa 0,0 l/m 0 min 0 min 0 W/m 12,6 km/h (3 Bft)
09.02.2015 00:16 2,6 C 1,7 C 91 % 1031,1 hPa 0,0 l/m 0 min 0 min 0 W/m 10,5 km/h (2 Bft)
09.02.2015 00:18 2,6 C 1,7 C 91 % 1031,1 hPa 0,0 l/m 0 min 0 min 0 W/m 12,6 km/h (3 Bft)
09.02.2015 00:20 2,6 C 1,7 C 92 % 1031,1 hPa 0,0 l/m 0 min 0 min 0 W/m 10,5 km/h (2 Bft)
09.02.2015 00:22 2,6 C 1,7 C 92 % 1031,1 hPa 0,0 l/m 0 min 0 min 0 W/m 10,5 km/h (2 Bft)
09.02.2015 00:24 2,7 C 1,7 C 92 % 1031,1 hPa 0,0 l/m 0 min 2 min 0 W/m 18,8 km/h (3 Bft)
09.02.2015 00:26 2,7 C 1,7 C 92 % 1031,1 hPa 0,0 l/m 0 min 0 min 0 W/m 8,4 km/h (2 Bft)
09.02.2015 00:28 2,7 C 1,7 C 92 % 1031,1 hPa 0,0 l/m 0 min 0 min 0 W/m 16,7 km/h (3 Bft)
09.02.2015 00:30 2,7 C 1,7 C 92 % 1031,1 hPa 0,0 l/m 0 min 2 min 0 W/m 18,8 km/h (3 Bft)
09.02.2015 00:32 2,7 C 1,7 C 92 % 1031,1 hPa 0,0 l/m 0 min 2 min 0 W/m 14,6 km/h (3 Bft)
09.02.2015 00:34 2,7 C 1,7 C 92 % 1031,0 hPa 0,0 l/m 0 min 2 min 0 W/m 14,6 km/h (3 Bft)
09.02.2015 00:36 2,7 C 1,7 C 92 % 1031,1 hPa 0,0 l/m 0 min 2 min 0 W/m 10,5 km/h (2 Bft)
09.02.2015 00:38 2,8 C 1,7 C 92 % 1031,1 hPa 0,0 l/m 0 min 2 min 0 W/m 6,3 km/h (2 Bft)
09.02.2015 00:40 2,8 C 1,7 C 92 % 1031,1 hPa 0,0 l/m 0 min 0 min 0 W/m 8,4 km/h (2 Bft)
09.02.2015 00:42 2,8 C 1,7 C 92 % 1031,0 hPa 0,0 l/m 0 min 0 min 0 W/m 14,6 km/h (3 Bft)
09.02.2015 00:44 2,8 C 1,7 C 92 % 1031,1 hPa 0,0 l/m 0 min 0 min 0 W/m 16,7 km/h (3 Bft)
09.02.2015 00:46 2,8 C 1,7 C 92 % 1031,0 hPa 0,0 l/m 0 min 0 min 0 W/m 12,6 km/h (3 Bft)
09.02.2015 00:48 2,8 C 1,7 C 92 % 1031,0 hPa 0,0 l/m 0 min 0 min 0 W/m 12,6 km/h (3 Bft)
09.02.2015 00:50 2,9 C 1,7 C 92 % 1031,0 hPa 0,0 l/m 0 min 0 min 0 W/m 12,6 km/h (3 Bft)
09.02.2015 00:52 2,9 C 1,7 C 92 % 1031,0 hPa 0,0 l/m 0 min 0 min 0 W/m 14,6 km/h (3 Bft)
09.02.2015 00:54 2,9 C 1,7 C 92 % 1031,0 hPa 0,0 l/m 0 min 0 min 0 W/m 6,3 km/h (2 Bft)
09.02.2015 00:56 2,9 C 1,7 C 92 % 1030,9 hPa 0,0 l/m 0 min 0 min 0 W/m 10,5 km/h (2 Bft)
09.02.2015 00:58 2,9 C 1,7 C 92 % 1030,9 hPa 0,0 l/m 0 min 0 min 0 W/m 12,6 km/h (3 Bft)
09.02.2015 01:00 2,9 C 1,7 C 93 % 1030,7 hPa 0,0 l/m 0 min 0 min 0 W/m 10,5 km/h (2 Bft)
09.02.2015 01:02 2,9 C 1,7 C 93 % 1030,7 hPa 0,0 l/m 0 min 0 min 0 W/m 12,6 km/h (3 Bft)
09.02.2015 01:04 2,9 C 1,7 C 93 % 1030,7 hPa 0,0 l/m 0 min 0 min 0 W/m 8,4 km/h (2 Bft)
09.02.2015 01:06 2,9 C 1,7 C 93 % 1030,7 hPa 0,0 l/m 0 min 0 min 0 W/m 10,5 km/h (2 Bft)
09.02.2015 01:08 2,9 C 1,7 C 93 % 1030,7 hPa 0,0 l/m 0 min 0 min 0 W/m 8,4 km/h (2 Bft)
09.02.2015 01:10 2,9 C 1,7 C 93 % 1030,6 hPa 0,0 l/m 0 min 0 min 0 W/m 14,6 km/h (3 Bft)
09.02.2015 01:12 2,9 C 1,7 C 93 % 1030,6 hPa 0,0 l/m 0 min 0 min 0 W/m 12,6 km/h (3 Bft)
09.02.2015 01:14 2,9 C 1,7 C 93 % 1030,7 hPa 0,0 l/m 0 min 0 min 0 W/m 10,5 km/h (2 Bft)
09.02.2015 01:16 2,9 C 1,7 C 93 % 1030,7 hPa 0,0 l/m 0 min 0 min 0 W/m 14,6 km/h (3 Bft)
09.02.2015 01:18 2,9 C 1,7 C 93 % 1030,7 hPa 0,0 l/m 0 min 0 min 0 W/m 16,7 km/h (3 Bft)
09.02.2015 01:20 2,9 C 1,7 C 93 % 1030,7 hPa 0,0 l/m 0 min 0 min 0 W/m 12,6 km/h (3 Bft)
09.02.2015 01:22 3,0 C 1,7 C 93 % 1030,7 hPa 0,0 l/m 0 min 0 min 0 W/m 14,6 km/h (3 Bft)
09.02.2015 01:24 3,0 C 1,7 C 93 % 1030,6 hPa 0,0 l/m 0 min 0 min 0 W/m 18,8 km/h (3 Bft)
09.02.2015 01:26 3,0 C 1,7 C 93 % 1030,6 hPa 0,0 l/m 0 min 0 min 0 W/m 14,6 km/h (3 Bft)
09.02.2015 01:28 3,0 C 1,7 C 93 % 1030,6 hPa 0,0 l/m 0 min 0 min 0 W/m 14,6 km/h (3 Bft)
09.02.2015 01:30 3,0 C 1,7 C 93 % 1030,5 hPa 0,0 l/m 0 min 0 min 0 W/m 14,6 km/h (3 Bft)
09.02.2015 01:32 3,0 C 1,7 C 93 % 1030,6 hPa 0,0 l/m 0 min 0 min 0 W/m 16,7 km/h (3 Bft)
09.02.2015 01:34 3,0 C 1,7 C 93 % 1030,5 hPa 0,0 l/m 0 min 0 min 0 W/m 14,6 km/h (3 Bft)
09.02.2015 01:36 3,0 C 1,7 C 93 % 1030,4 hPa 0,0 l/m 0 min 0 min 0 W/m 16,7 km/h (3 Bft)
09.02.2015 01:38 3,0 C 1,7 C 93 % 1030,4 hPa 0,0 l/m 0 min 0 min 0 W/m 12,6 km/h (3 Bft)
09.02.2015 01:40 3,0 C 1,7 C 93 % 1030,4 hPa 0,0 l/m 0 min 0 min 0 W/m 14,6 km/h (3 Bft)
09.02.2015 01:42 3,0 C 1,7 C 93 % 1030,4 hPa 0,0 l/m 0 min 0 min 0 W/m 14,6 km/h (3 Bft)
09.02.2015 01:44 2,9 C 1,7 C 93 % 1030,4 hPa 0,0 l/m 0 min 0 min 0 W/m 10,5 km/h (2 Bft)
09.02.2015 01:46 2,9 C 1,7 C 93 % 1030,4 hPa 0,0 l/m 0 min 0 min 0 W/m 8,4 km/h (2 Bft)
09.02.2015 01:48 2,9 C 1,7 C 93 % 1030,5 hPa 0,0 l/m 0 min 0 min 0 W/m 12,6 km/h (3 Bft)
09.02.2015 01:50 2,9 C 1,7 C 94 % 1030,6 hPa 0,0 l/m 0 min 0 min 0 W/m 8,4 km/h (2 Bft)
09.02.2015 01:52 2,9 C 1,7 C 94 % 1030,6 hPa 0,0 l/m 0 min 0 min 0 W/m 8,4 km/h (2 Bft)
09.02.2015 01:54 2,9 C 1,7 C 94 % 1030,5 hPa 0,0 l/m 0 min 0 min 0 W/m 8,4 km/h (2 Bft)
09.02.2015 01:56 2,9 C 1,7 C 94 % 1030,4 hPa 0,0 l/m 0 min 0 min 0 W/m 14,6 km/h (3 Bft)
09.02.2015 01:58 2,9 C 1,7 C 94 % 1030,3 hPa 0,0 l/m 0 min 0 min 0 W/m 14,6 km/h (3 Bft)
09.02.2015 02:00 2,9 C 1,7 C 94 % 1030,3 hPa 0,0 l/m 0 min 0 min 0 W/m 14,6 km/h (3 Bft)
09.02.2015 02:02 3,0 C 1,7 C 94 % 1030,3 hPa 0,0 l/m 0 min 0 min 0 W/m 12,6 km/h (3 Bft)
09.02.2015 02:04 3,0 C 1,7 C 94 % 1030,3 hPa 0,0 l/m 0 min 0 min 0 W/m 10,5 km/h (2 Bft)
09.02.2015 02:06 3,0 C 1,7 C 94 % 1030,3 hPa 0,0 l/m 0 min 0 min 0 W/m 16,7 km/h (3 Bft)
09.02.2015 02:08 3,0 C 1,7 C 94 % 1030,2 hPa 0,0 l/m 0 min 0 min 0 W/m 16,7 km/h (3 Bft)
09.02.2015 02:10 3,0 C 1,7 C 94 % 1030,3 hPa 0,0 l/m 0 min 0 min 0 W/m 12,6 km/h (3 Bft)
09.02.2015 02:12 3,0 C 1,7 C 94 % 1030,2 hPa 0,0 l/m 0 min 0 min 0 W/m 14,6 km/h (3 Bft)
09.02.2015 02:14 3,0 C 1,7 C 94 % 1030,2 hPa 0,0 l/m 0 min 0 min 0 W/m 10,5 km/h (2 Bft)
09.02.2015 02:16 3,0 C 1,7 C 94 % 1030,2 hPa 0,0 l/m 0 min 0 min 0 W/m 8,4 km/h (2 Bft)
09.02.2015 02:18 3,0 C 1,7 C 94 % 1030,2 hPa 0,0 l/m 0 min 0 min 0 W/m 8,4 km/h (2 Bft)
09.02.2015 02:20 3,0 C 1,7 C 94 % 1030,2 hPa 0,0 l/m 0 min 0 min 0 W/m 10,5 km/h (2 Bft)
09.02.2015 02:22 3,0 C 1,7 C 94 % 1030,2 hPa 0,0 l/m 0 min 0 min 0 W/m 12,6 km/h (3 Bft)
09.02.2015 02:24 3,0 C 1,7 C 94 % 1030,2 hPa 0,0 l/m 0 min 0 min 0 W/m 10,5 km/h (2 Bft)
09.02.2015 02:26 3,0 C 1,7 C 94 % 1030,1 hPa 0,0 l/m 0 min 0 min 0 W/m 12,6 km/h (3 Bft)
09.02.2015 02:28 3,0 C 1,7 C 94 % 1030,1 hPa 0,0 l/m 0 min 0 min 0 W/m 10,5 km/h (2 Bft)
09.02.2015 02:30 3,0 C 1,7 C 94 % 1030,1 hPa 0,0 l/m 0 min 0 min 0 W/m 12,6 km/h (3 Bft)
09.02.2015 02:32 3,0 C 1,7 C 94 % 1030,0 hPa 0,0 l/m 0 min 0 min 0 W/m 10,5 km/h (2 Bft)
09.02.2015 02:34 3,1 C 1,7 C 94 % 1030,1 hPa 0,0 l/m 0 min 0 min 0 W/m 10,5 km/h (2 Bft)
09.02.2015 02:36 3,0 C 1,7 C 94 % 1030,0 hPa 0,0 l/m 0 min 0 min 0 W/m 14,6 km/h (3 Bft)
09.02.2015 02:38 3,1 C 1,7 C 94 % 1030,0 hPa 0,0 l/m 0 min 0 min 0 W/m 10,5 km/h (2 Bft)
09.02.2015 02:40 3,1 C 1,7 C 94 % 1030,0 hPa 0,0 l/m 0 min 0 min 0 W/m 12,6 km/h (3 Bft)
09.02.2015 02:42 3,1 C 1,7 C 94 % 1030,1 hPa 0,0 l/m 0 min 0 min 0 W/m 10,5 km/h (2 Bft)
09.02.2015 02:44 3,1 C 1,7 C 94 % 1030,0 hPa 0,0 l/m 0 min 0 min 0 W/m 4,2 km/h (1 Bft)
09.02.2015 02:46 3,1 C 1,7 C 94 % 1030,1 hPa 0,0 l/m 0 min 0 min 0 W/m 8,4 km/h (2 Bft)
09.02.2015 02:48 3,1 C 1,7 C 94 % 1030,1 hPa 0,0 l/m 0 min 0 min 0 W/m 8,4 km/h (2 Bft)
09.02.2015 02:50 3,1 C 1,7 C 94 % 1030,1 hPa 0,0 l/m 0 min 0 min 0 W/m 10,5 km/h (2 Bft)
09.02.2015 02:52 3,1 C 1,7 C 94 % 1030,1 hPa 0,0 l/m 0 min 0 min 0 W/m 8,4 km/h (2 Bft)
09.02.2015 02:54 3,1 C 1,7 C 94 % 1030,1 hPa 0,0 l/m 0 min 0 min 0 W/m 12,6 km/h (3 Bft)
09.02.2015 02:56 3,1 C 1,7 C 94 % 1030,1 hPa 0,0 l/m 0 min 0 min 0 W/m 10,5 km/h (2 Bft)
09.02.2015 02:58 3,1 C 1,7 C 94 % 1030,0 hPa 0,0 l/m 0 min 0 min 0 W/m 10,5 km/h (2 Bft)
09.02.2015 03:00 3,1 C 1,7 C 94 % 1030,0 hPa 0,0 l/m 0 min 0 min 0 W/m 12,6 km/h (3 Bft)
09.02.2015 03:02 3,1 C 1,7 C 94 % 1030,0 hPa 0,0 l/m 0 min 0 min 0 W/m 10,5 km/h (2 Bft)
09.02.2015 03:04 3,1 C 2,2 C 94 % 1030,0 hPa 0,0 l/m 0 min 0 min 0 W/m 18,8 km/h (3 Bft)
09.02.2015 03:06 3,1 C 1,7 C 94 % 1030,0 hPa 0,0 l/m 0 min 0 min 0 W/m 10,5 km/h (2 Bft)
09.02.2015 03:08 3,1 C 2,2 C 94 % 1030,0 hPa 0,0 l/m 0 min 0 min 0 W/m 12,6 km/h (3 Bft)
09.02.2015 03:10 3,2 C 2,2 C 94 % 1029,9 hPa 0,0 l/m 0 min 0 min 0 W/m 10,5 km/h (2 Bft)
09.02.2015 03:12 3,2 C 2,2 C 94 % 1030,0 hPa 0,0 l/m 0 min 0 min 0 W/m 10,5 km/h (2 Bft)
09.02.2015 03:14 3,2 C 2,2 C 94 % 1029,9 hPa 0,0 l/m 0 min 0 min 0 W/m 8,4 km/h (2 Bft)
09.02.2015 03:16 3,2 C 2,2 C 94 % 1029,8 hPa 0,0 l/m 0 min 0 min 0 W/m 14,6 km/h (3 Bft)
09.02.2015 03:18 3,2 C 2,2 C 94 % 1029,9 hPa 0,0 l/m 0 min 0 min 0 W/m 12,6 km/h (3 Bft)
09.02.2015 03:20 3,2 C 2,2 C 95 % 1029,9 hPa 0,0 l/m 0 min 0 min 0 W/m 12,6 km/h (3 Bft)
09.02.2015 03:22 3,2 C 2,2 C 95 % 1030,0 hPa 0,0 l/m 0 min 0 min 0 W/m 10,5 km/h (2 Bft)
09.02.2015 03:24 3,3 C 2,2 C 95 % 1029,9 hPa 0,0 l/m 0 min 0 min 0 W/m 8,4 km/h (2 Bft)
09.02.2015 03:26 3,3 C 2,2 C 95 % 1029,8 hPa 0,0 l/m 0 min 0 min 0 W/m 8,4 km/h (2 Bft)
09.02.2015 03:28 3,3 C 2,2 C 95 % 1029,7 hPa 0,0 l/m 0 min 0 min 0 W/m 12,6 km/h (3 Bft)
09.02.2015 03:30 3,3 C 2,2 C 95 % 1029,7 hPa 0,0 l/m 0 min 0 min 0 W/m 12,6 km/h (3 Bft)
09.02.2015 03:32 3,3 C 2,2 C 95 % 1029,7 hPa 0,0 l/m 0 min 0 min 0 W/m 8,4 km/h (2 Bft)
09.02.2015 03:34 3,3 C 2,2 C 95 % 1029,7 hPa 0,0 l/m 0 min 0 min 0 W/m 6,3 km/h (2 Bft)
09.02.2015 03:36 3,3 C 2,2 C 95 % 1029,7 hPa 0,0 l/m 0 min 0 min 0 W/m 12,6 km/h (3 Bft)
09.02.2015 03:38 3,4 C 2,2 C 95 % 1029,7 hPa 0,0 l/m 0 min 0 min 0 W/m 12,6 km/h (3 Bft)
09.02.2015 03:40 3,4 C 2,2 C 95 % 1029,6 hPa 0,0 l/m 0 min 0 min 0 W/m 14,6 km/h (3 Bft)
09.02.2015 03:42 3,4 C 2,2 C 95 % 1029,6 hPa 0,0 l/m 0 min 0 min 0 W/m 18,8 km/h (3 Bft)
09.02.2015 03:44 3,4 C 2,2 C 95 % 1029,6 hPa 0,0 l/m 0 min 0 min 0 W/m 23,0 km/h (4 Bft)
09.02.2015 03:46 3,5 C 2,8 C 95 % 1029,6 hPa 0,0 l/m 0 min 0 min 0 W/m 14,6 km/h (3 Bft)
09.02.2015 03:48 3,5 C 2,8 C 95 % 1029,6 hPa 0,0 l/m 0 min 0 min 0 W/m 18,8 km/h (3 Bft)
09.02.2015 03:50 3,5 C 2,2 C 95 % 1029,6 hPa 0,0 l/m 0 min 0 min 0 W/m 12,6 km/h (3 Bft)
09.02.2015 03:52 3,6 C 2,8 C 95 % 1029,6 hPa 0,0 l/m 0 min 0 min 0 W/m 14,6 km/h (3 Bft)
09.02.2015 03:54 3,6 C 2,8 C 95 % 1029,6 hPa 0,0 l/m 0 min 0 min 0 W/m 12,6 km/h (3 Bft)
09.02.2015 03:56 3,6 C 2,8 C 95 % 1029,6 hPa 0,0 l/m 0 min 0 min 0 W/m 16,7 km/h (3 Bft)
09.02.2015 03:58 3,6 C 2,8 C 95 % 1029,6 hPa 0,0 l/m 0 min 0 min 0 W/m 16,7 km/h (3 Bft)
09.02.2015 04:00 3,7 C 2,8 C 95 % 1029,6 hPa 0,0 l/m 0 min 0 min 0 W/m 14,6 km/h (3 Bft)
09.02.2015 04:05 3,7 C 2,8 C 95 % 1029,3 hPa 0,0 l/m 0 min 0 min 0 W/m 4,2 km/h (1 Bft)
09.02.2015 04:10 3,7 C 2,8 C 95 % 1029,3 hPa 0,0 l/m 0 min 0 min 0 W/m 18,8 km/h (3 Bft)
09.02.2015 04:12 3,7 C 2,8 C 95 % 1029,2 hPa 0,0 l/m 0 min 0 min 0 W/m 16,7 km/h (3 Bft)
09.02.2015 04:14 3,7 C 2,2 C 95 % 1029,2 hPa 0,0 l/m 0 min 0 min 0 W/m 16,7 km/h (3 Bft)
09.02.2015 04:16 3,7 C 2,2 C 95 % 1029,1 hPa 0,0 l/m 0 min 0 min 0 W/m 18,8 km/h (3 Bft)
09.02.2015 04:18 3,7 C 2,8 C 95 % 1029,1 hPa 0,0 l/m 0 min 0 min 0 W/m 14,6 km/h (3 Bft)
09.02.2015 04:20 3,7 C 2,2 C 95 % 1029,1 hPa 0,0 l/m 0 min 0 min 0 W/m 16,7 km/h (3 Bft)
09.02.2015 04:22 3,7 C 2,2 C 95 % 1029,0 hPa 0,0 l/m 0 min 0 min 0 W/m 18,8 km/h (3 Bft)
09.02.2015 04:24 3,7 C 2,2 C 95 % 1029,0 hPa 0,0 l/m 0 min 0 min 0 W/m 16,7 km/h (3 Bft)
09.02.2015 04:26 3,7 C 2,2 C 95 % 1028,9 hPa 0,0 l/m 0 min 0 min 0 W/m 14,6 km/h (3 Bft)
09.02.2015 04:28 3,7 C 2,2 C 95 % 1028,9 hPa 0,0 l/m 0 min 0 min 0 W/m 20,9 km/h (4 Bft)
09.02.2015 04:30 3,7 C 2,8 C 95 % 1028,9 hPa 0,0 l/m 0 min 0 min 0 W/m 16,7 km/h (3 Bft)
09.02.2015 04:32 3,7 C 2,2 C 95 % 1028,8 hPa 0,0 l/m 0 min 0 min 0 W/m 18,8 km/h (3 Bft)
09.02.2015 04:34 3,7 C 2,2 C 95 % 1028,8 hPa 0,0 l/m 0 min 0 min 0 W/m 12,6 km/h (3 Bft)
09.02.2015 04:36 3,7 C 2,2 C 95 % 1028,8 hPa 0,0 l/m 0 min 0 min 0 W/m 10,5 km/h (2 Bft)
09.02.2015 04:38 3,7 C 2,2 C 95 % 1028,7 hPa 0,0 l/m 0 min 0 min 0 W/m 16,7 km/h (3 Bft)
09.02.2015 04:40 3,7 C 2,2 C 95 % 1028,8 hPa 0,0 l/m 0 min 0 min 0 W/m 10,5 km/h (2 Bft)
09.02.2015 04:42 3,7 C 2,2 C 95 % 1028,8 hPa 0,0 l/m 0 min 0 min 0 W/m 18,8 km/h (3 Bft)
09.02.2015 04:44 3,7 C 2,2 C 95 % 1028,7 hPa 0,0 l/m 0 min 0 min 0 W/m 16,7 km/h (3 Bft)
09.02.2015 04:46 3,7 C 2,2 C 95 % 1028,6 hPa 0,0 l/m 0 min 0 min 0 W/m 18,8 km/h (3 Bft)
09.02.2015 04:48 3,7 C 2,2 C 95 % 1028,6 hPa 0,0 l/m 0 min 0 min 0 W/m 16,7 km/h (3 Bft)
09.02.2015 04:50 3,7 C 2,2 C 95 % 1028,6 hPa 0,0 l/m 0 min 0 min 0 W/m 14,6 km/h (3 Bft)
09.02.2015 04:52 3,7 C 2,2 C 95 % 1028,7 hPa 0,0 l/m 0 min 0 min 0 W/m 18,8 km/h (3 Bft)
09.02.2015 04:54 3,7 C 2,2 C 94 % 1028,7 hPa 0,0 l/m 0 min 0 min 0 W/m 16,7 km/h (3 Bft)
09.02.2015 04:56 3,7 C 2,2 C 94 % 1028,7 hPa 0,0 l/m 0 min 0 min 0 W/m 18,8 km/h (3 Bft)
09.02.2015 04:58 3,7 C 2,2 C 94 % 1028,6 hPa 0,0 l/m 0 min 0 min 0 W/m 10,5 km/h (2 Bft)
09.02.2015 05:00 3,7 C 2,2 C 94 % 1028,6 hPa 0,0 l/m 0 min 0 min 0 W/m 10,5 km/h (2 Bft)
09.02.2015 05:02 3,7 C 2,2 C 94 % 1028,6 hPa 0,0 l/m 0 min 0 min 0 W/m 14,6 km/h (3 Bft)
09.02.2015 05:04 3,7 C 2,2 C 94 % 1028,6 hPa 0,0 l/m 0 min 0 min 0 W/m 14,6 km/h (3 Bft)
09.02.2015 05:06 3,7 C 2,2 C 94 % 1028,6 hPa 0,0 l/m 0 min 0 min 0 W/m 16,7 km/h (3 Bft)
09.02.2015 05:08 3,7 C 2,2 C 94 % 1028,7 hPa 0,0 l/m 0 min 0 min 0 W/m 14,6 km/h (3 Bft)
09.02.2015 05:10 3,6 C 2,2 C 94 % 1028,7 hPa 0,0 l/m 0 min 0 min 0 W/m 18,8 km/h (3 Bft)
09.02.2015 05:12 3,6 C 2,2 C 94 % 1028,7 hPa 0,0 l/m 0 min 0 min 0 W/m 18,8 km/h (3 Bft)
09.02.2015 05:14 3,7 C 2,2 C 94 % 1028,8 hPa 0,0 l/m 0 min 0 min 0 W/m 16,7 km/h (3 Bft)
09.02.2015 05:16 3,7 C 2,2 C 94 % 1028,8 hPa 0,0 l/m 0 min 0 min 0 W/m 14,6 km/h (3 Bft)
09.02.2015 05:18 3,7 C 2,8 C 94 % 1028,9 hPa 0,0 l/m 0 min 0 min 0 W/m 20,9 km/h (4 Bft)
09.02.2015 05:20 3,7 C 2,8 C 94 % 1028,9 hPa 0,0 l/m 0 min 0 min 0 W/m 16,7 km/h (3 Bft)
09.02.2015 05:22 3,7 C 2,8 C 94 % 1028,9 hPa 0,0 l/m 0 min 0 min 0 W/m 16,7 km/h (3 Bft)
09.02.2015 05:24 3,7 C 2,8 C 94 % 1028,9 hPa 0,0 l/m 0 min 0 min 0 W/m 14,6 km/h (3 Bft)
09.02.2015 05:26 3,7 C 2,8 C 94 % 1029,0 hPa 0,0 l/m 0 min 0 min 0 W/m 12,6 km/h (3 Bft)
09.02.2015 05:28 3,7 C 2,8 C 94 % 1029,0 hPa 0,0 l/m 0 min 0 min 0 W/m 14,6 km/h (3 Bft)
09.02.2015 05:30 3,7 C 2,8 C 94 % 1029,0 hPa 0,0 l/m 0 min 0 min 0 W/m 14,6 km/h (3 Bft)
09.02.2015 05:32 3,7 C 2,8 C 94 % 1029,0 hPa 0,0 l/m 0 min 0 min 0 W/m 14,6 km/h (3 Bft)
09.02.2015 05:34 3,7 C 2,8 C 94 % 1029,0 hPa 0,0 l/m 0 min 0 min 0 W/m 10,5 km/h (2 Bft)
09.02.2015 05:36 3,7 C 2,8 C 94 % 1029,0 hPa 0,0 l/m 0 min 0 min 0 W/m 18,8 km/h (3 Bft)
09.02.2015 05:38 3,7 C 2,8 C 94 % 1029,0 hPa 0,0 l/m 0 min 0 min 0 W/m 18,8 km/h (3 Bft)
09.02.2015 05:40 3,7 C 2,8 C 94 % 1029,0 hPa 0,0 l/m 0 min 0 min 0 W/m 14,6 km/h (3 Bft)
09.02.2015 05:42 3,7 C 2,8 C 94 % 1029,0 hPa 0,0 l/m 0 min 0 min 0 W/m 12,6 km/h (3 Bft)
09.02.2015 05:44 3,7 C 2,8 C 94 % 1029,0 hPa 0,0 l/m 0 min 0 min 0 W/m 14,6 km/h (3 Bft)
09.02.2015 05:46 3,7 C 2,8 C 94 % 1029,0 hPa 0,0 l/m 0 min 0 min 0 W/m 8,4 km/h (2 Bft)
09.02.2015 05:48 3,7 C 2,8 C 94 % 1029,1 hPa 0,0 l/m 0 min 0 min 0 W/m 14,6 km/h (3 Bft)
09.02.2015 05:50 3,7 C 2,8 C 94 % 1029,1 hPa 0,0 l/m 0 min 0 min 0 W/m 10,5 km/h (2 Bft)
09.02.2015 05:52 3,7 C 2,8 C 94 % 1029,0 hPa 0,0 l/m 0 min 0 min 0 W/m 14,6 km/h (3 Bft)
09.02.2015 05:54 3,7 C 2,8 C 94 % 1029,0 hPa 0,0 l/m 0 min 0 min 0 W/m 10,5 km/h (2 Bft)
09.02.2015 05:56 3,7 C 2,8 C 94 % 1029,0 hPa 0,0 l/m 0 min 0 min 0 W/m 14,6 km/h (3 Bft)
09.02.2015 05:58 3,7 C 2,8 C 94 % 1029,1 hPa 0,0 l/m 0 min 0 min 0 W/m 6,3 km/h (2 Bft)
09.02.2015 06:00 3,7 C 2,8 C 94 % 1029,0 hPa 0,0 l/m 0 min 0 min 0 W/m 10,5 km/h (2 Bft)
09.02.2015 06:02 3,7 C 2,8 C 94 % 1029,1 hPa 0,0 l/m 0 min 0 min 0 W/m 16,7 km/h (3 Bft)
09.02.2015 06:05 3,7 C 2,8 C 94 % 1029,1 hPa 0,0 l/m 0 min 0 min 0 W/m 16,7 km/h (3 Bft)
09.02.2015 06:06 3,7 C 2,2 C 94 % 1029,0 hPa 0,0 l/m 0 min 0 min 0 W/m 16,7 km/h (3 Bft)
09.02.2015 06:08 3,7 C 2,2 C 94 % 1029,0 hPa 0,0 l/m 0 min 0 min 0 W/m 16,7 km/h (3 Bft)
09.02.2015 06:10 3,7 C 2,2 C 94 % 1029,1 hPa 0,0 l/m 0 min 0 min 0 W/m 12,6 km/h (3 Bft)
09.02.2015 06:12 3,7 C 2,8 C 94 % 1029,1 hPa 0,0 l/m 0 min 0 min 0 W/m 14,6 km/h (3 Bft)
09.02.2015 06:14 3,7 C 2,8 C 94 % 1029,1 hPa 0,0 l/m 0 min 0 min 0 W/m 14,6 km/h (3 Bft)
09.02.2015 06:16 3,7 C 2,2 C 94 % 1029,1 hPa 0,0 l/m 0 min 0 min 0 W/m 10,5 km/h (2 Bft)
09.02.2015 06:18 3,7 C 2,8 C 94 % 1029,1 hPa 0,0 l/m 0 min 0 min 0 W/m 18,8 km/h (3 Bft)
09.02.2015 06:20 3,7 C 2,8 C 94 % 1029,1 hPa 0,0 l/m 0 min 0 min 0 W/m 14,6 km/h (3 Bft)
09.02.2015 06:22 3,7 C 2,2 C 94 % 1029,1 hPa 0,0 l/m 0 min 0 min 0 W/m 8,4 km/h (2 Bft)
09.02.2015 06:24 3,7 C 2,2 C 94 % 1029,2 hPa 0,0 l/m 0 min 0 min 0 W/m 16,7 km/h (3 Bft)
09.02.2015 06:26 3,7 C 2,2 C 94 % 1029,1 hPa 0,0 l/m 0 min 0 min 0 W/m 18,8 km/h (3 Bft)
09.02.2015 06:28 3,7 C 2,2 C 94 % 1029,1 hPa 0,0 l/m 0 min 0 min 0 W/m 18,8 km/h (3 Bft)
09.02.2015 06:30 3,7 C 2,8 C 94 % 1029,1 hPa 0,0 l/m 0 min 0 min 0 W/m 18,8 km/h (3 Bft)
09.02.2015 06:32 3,7 C 2,8 C 94 % 1029,2 hPa 0,0 l/m 0 min 0 min 0 W/m 14,6 km/h (3 Bft)
09.02.2015 06:34 3,7 C 2,2 C 94 % 1029,2 hPa 0,0 l/m 0 min 0 min 0 W/m 18,8 km/h (3 Bft)
09.02.2015 06:36 3,7 C 2,2 C 94 % 1029,0 hPa 0,0 l/m 0 min 0 min 0 W/m 23,0 km/h (4 Bft)
09.02.2015 06:38 3,7 C 2,2 C 94 % 1029,0 hPa 0,0 l/m 0 min 0 min 0 W/m 18,8 km/h (3 Bft)
09.02.2015 06:40 3,7 C 2,2 C 94 % 1028,9 hPa 0,0 l/m 0 min 0 min 0 W/m 20,9 km/h (4 Bft)
09.02.2015 06:42 3,7 C 2,2 C 94 % 1028,9 hPa 0,0 l/m 0 min 0 min 0 W/m 16,7 km/h (3 Bft)
09.02.2015 06:44 3,7 C 2,2 C 94 % 1028,8 hPa 0,0 l/m 0 min 0 min 0 W/m 20,9 km/h (4 Bft)
09.02.2015 06:46 3,7 C 2,2 C 94 % 1028,9 hPa 0,0 l/m 0 min 0 min 0 W/m 16,7 km/h (3 Bft)
09.02.2015 06:48 3,7 C 2,2 C 94 % 1028,8 hPa 0,0 l/m 0 min 0 min 0 W/m 20,9 km/h (4 Bft)
09.02.2015 06:50 3,7 C 2,2 C 94 % 1028,8 hPa 0,0 l/m 0 min 0 min 0 W/m 18,8 km/h (3 Bft)
09.02.2015 06:52 3,7 C 2,2 C 94 % 1028,8 hPa 0,0 l/m 0 min 0 min 0 W/m 20,9 km/h (4 Bft)
09.02.2015 06:54 3,7 C 2,2 C 94 % 1028,7 hPa 0,0 l/m 0 min 0 min 0 W/m 20,9 km/h (4 Bft)
09.02.2015 06:56 3,7 C 2,2 C 94 % 1028,6 hPa 0,0 l/m 0 min 0 min 0 W/m 16,7 km/h (3 Bft)
09.02.2015 06:58 3,7 C 2,2 C 94 % 1028,8 hPa 0,0 l/m 0 min 0 min 0 W/m 12,6 km/h (3 Bft)
09.02.2015 07:00 3,7 C 2,2 C 94 % 1028,7 hPa 0,0 l/m 0 min 0 min 0 W/m 14,6 km/h (3 Bft)
09.02.2015 07:02 3,7 C 2,2 C 94 % 1028,8 hPa 0,0 l/m 0 min 0 min 0 W/m 16,7 km/h (3 Bft)
09.02.2015 07:04 3,7 C 2,2 C 94 % 1028,8 hPa 0,0 l/m 0 min 0 min 0 W/m 16,7 km/h (3 Bft)
09.02.2015 07:06 3,7 C 2,2 C 94 % 1028,8 hPa 0,0 l/m 0 min 0 min 0 W/m 20,9 km/h (4 Bft)
09.02.2015 07:08 3,6 C 2,2 C 94 % 1028,9 hPa 0,0 l/m 0 min 0 min 0 W/m 16,7 km/h (3 Bft)
09.02.2015 07:10 3,6 C 2,2 C 94 % 1028,9 hPa 0,0 l/m 0 min 0 min 0 W/m 14,6 km/h (3 Bft)
09.02.2015 07:12 3,6 C 2,2 C 94 % 1028,9 hPa 0,0 l/m 0 min 0 min 0 W/m 16,7 km/h (3 Bft)
09.02.2015 07:14 3,6 C 2,2 C 94 % 1028,9 hPa 0,0 l/m 0 min 0 min 0 W/m 12,6 km/h (3 Bft)
09.02.2015 07:16 3,6 C 2,2 C 94 % 1028,9 hPa 0,0 l/m 0 min 0 min 0 W/m 16,7 km/h (3 Bft)
09.02.2015 07:18 3,6 C 2,2 C 94 % 1028,9 hPa 0,0 l/m 0 min 0 min 0 W/m 16,7 km/h (3 Bft)
09.02.2015 07:20 3,7 C 2,2 C 94 % 1028,9 hPa 0,0 l/m 0 min 0 min 0 W/m 20,9 km/h (4 Bft)
09.02.2015 07:22 3,6 C 2,2 C 94 % 1028,9 hPa 0,0 l/m 0 min 0 min 0 W/m 18,8 km/h (3 Bft)
09.02.2015 07:24 3,6 C 2,2 C 94 % 1028,9 hPa 0,0 l/m 0 min 0 min 0 W/m 16,7 km/h (3 Bft)
09.02.2015 07:26 3,7 C 2,2 C 94 % 1028,9 hPa 0,0 l/m 0 min 0 min 0 W/m 12,6 km/h (3 Bft)
09.02.2015 07:28 3,6 C 2,2 C 94 % 1028,9 hPa 0,0 l/m 0 min 0 min 0 W/m 14,6 km/h (3 Bft)
09.02.2015 07:30 3,6 C 2,2 C 94 % 1029,0 hPa 0,0 l/m 0 min 0 min 0 W/m 16,7 km/h (3 Bft)
09.02.2015 07:32 3,6 C 2,2 C 94 % 1029,1 hPa 0,0 l/m 0 min 0 min 0 W/m 20,9 km/h (4 Bft)
09.02.2015 07:34 3,6 C 2,2 C 94 % 1029,1 hPa 0,0 l/m 0 min 0 min 0 W/m 16,7 km/h (3 Bft)
09.02.2015 07:36 3,6 C 2,8 C 94 % 1029,1 hPa 0,0 l/m 0 min 0 min 0 W/m 12,6 km/h (3 Bft)
09.02.2015 07:38 3,6 C 2,2 C 94 % 1029,1 hPa 0,0 l/m 0 min 0 min 0 W/m 10,5 km/h (2 Bft)
09.02.2015 07:40 3,7 C 2,2 C 94 % 1029,1 hPa 0,0 l/m 0 min 0 min 0 W/m 14,6 km/h (3 Bft)
09.02.2015 07:42 3,7 C 2,2 C 94 % 1029,1 hPa 0,0 l/m 0 min 0 min 0 W/m 14,6 km/h (3 Bft)
09.02.2015 07:44 3,7 C 2,2 C 94 % 1029,0 hPa 0,0 l/m 0 min 0 min 0 W/m 16,7 km/h (3 Bft)
09.02.2015 07:46 3,7 C 2,2 C 94 % 1029,1 hPa 0,0 l/m 0 min 0 min 0 W/m 18,8 km/h (3 Bft)
09.02.2015 07:48 3,7 C 2,2 C 94 % 1029,2 hPa 0,0 l/m 0 min 0 min 0 W/m 14,6 km/h (3 Bft)
09.02.2015 07:50 3,7 C 2,2 C 94 % 1029,2 hPa 0,0 l/m 0 min 0 min 0 W/m 14,6 km/h (3 Bft)
09.02.2015 07:52 3,7 C 2,2 C 94 % 1029,2 hPa 0,0 l/m 0 min 0 min 0 W/m 12,6 km/h (3 Bft)
09.02.2015 07:54 3,7 C 2,2 C 94 % 1029,3 hPa 0,0 l/m 0 min 0 min 0 W/m 20,9 km/h (4 Bft)
09.02.2015 07:56 3,7 C 2,2 C 94 % 1029,3 hPa 0,0 l/m 0 min 0 min 0 W/m 29,3 km/h (5 Bft)
09.02.2015 07:58 3,7 C 2,2 C 94 % 1029,3 hPa 0,0 l/m 0 min 0 min 0 W/m 12,6 km/h (3 Bft)
09.02.2015 08:00 3,7 C 2,2 C 94 % 1029,3 hPa 0,0 l/m 0 min 0 min 0 W/m 16,7 km/h (3 Bft)
09.02.2015 08:02 3,7 C 2,2 C 94 % 1029,4 hPa 0,0 l/m 0 min 0 min 0 W/m 16,7 km/h (3 Bft)
09.02.2015 08:04 3,7 C 2,2 C 94 % 1029,4 hPa 0,0 l/m 0 min 0 min 0 W/m 14,6 km/h (3 Bft)
09.02.2015 08:06 3,7 C 2,2 C 95 % 1029,4 hPa 0,0 l/m 0 min 0 min 0 W/m 12,6 km/h (3 Bft)
09.02.2015 08:08 3,6 C 2,2 C 95 % 1029,5 hPa 0,0 l/m 0 min 0 min 0 W/m 12,6 km/h (3 Bft)
09.02.2015 08:10 3,6 C 2,2 C 95 % 1029,4 hPa 0,0 l/m 0 min 0 min 0 W/m 14,6 km/h (3 Bft)
09.02.2015 08:12 3,6 C 2,2 C 95 % 1029,4 hPa 0,0 l/m 0 min 0 min 0 W/m 12,6 km/h (3 Bft)
09.02.2015 08:14 3,6 C 2,2 C 95 % 1029,3 hPa 0,0 l/m 0 min 0 min 0 W/m 12,6 km/h (3 Bft)
09.02.2015 08:16 3,6 C 2,2 C 95 % 1029,3 hPa 0,0 l/m 0 min 0 min 5 W/m 16,7 km/h (3 Bft)
09.02.2015 08:18 3,6 C 2,2 C 95 % 1029,3 hPa 0,0 l/m 0 min 0 min 5 W/m 16,7 km/h (3 Bft)
09.02.2015 08:20 3,6 C 2,2 C 95 % 1029,3 hPa 0,0 l/m 0 min 0 min 5 W/m 12,6 km/h (3 Bft)
09.02.2015 08:22 3,6 C 2,2 C 95 % 1029,3 hPa 0,0 l/m 0 min 0 min 7 W/m 14,6 km/h (3 Bft)
09.02.2015 08:24 3,6 C 2,2 C 95 % 1029,3 hPa 0,0 l/m 0 min 0 min 8 W/m 12,6 km/h (3 Bft)
09.02.2015 08:26 3,6 C 2,2 C 95 % 1029,3 hPa 0,0 l/m 0 min 0 min 9 W/m 14,6 km/h (3 Bft)
09.02.2015 08:28 3,6 C 2,2 C 95 % 1029,4 hPa 0,0 l/m 0 min 0 min 9 W/m 12,6 km/h (3 Bft)
09.02.2015 08:30 3,6 C 2,2 C 95 % 1029,4 hPa 0,0 l/m 0 min 0 min 7 W/m 18,8 km/h (3 Bft)
09.02.2015 08:32 3,6 C 2,2 C 95 % 1029,4 hPa 0,0 l/m 0 min 0 min 7 W/m 12,6 km/h (3 Bft)
09.02.2015 08:34 3,6 C 2,2 C 95 % 1029,5 hPa 0,0 l/m 0 min 0 min 8 W/m 18,8 km/h (3 Bft)
09.02.2015 08:36 3,6 C 2,2 C 95 % 1029,6 hPa 0,0 l/m 0 min 0 min 8 W/m 10,5 km/h (2 Bft)
09.02.2015 08:38 3,6 C 2,2 C 95 % 1029,6 hPa 0,0 l/m 0 min 0 min 7 W/m 12,6 km/h (3 Bft)
09.02.2015 08:40 3,6 C 2,2 C 95 % 1029,5 hPa 0,0 l/m 0 min 0 min 9 W/m 23,0 km/h (4 Bft)
09.02.2015 08:42 3,6 C 2,2 C 95 % 1029,5 hPa 0,0 l/m 0 min 0 min 12 W/m 18,8 km/h (3 Bft)
09.02.2015 08:44 3,6 C 2,2 C 95 % 1029,5 hPa 0,0 l/m 0 min 0 min 14 W/m 14,6 km/h (3 Bft)
09.02.2015 08:46 3,6 C 2,2 C 95 % 1029,5 hPa 0,0 l/m 0 min 0 min 16 W/m 16,7 km/h (3 Bft)
09.02.2015 08:48 3,6 C 2,2 C 95 % 1029,6 hPa 0,0 l/m 0 min 0 min 25 W/m 16,7 km/h (3 Bft)
09.02.2015 08:50 3,7 C 2,8 C 95 % 1029,6 hPa 0,0 l/m 0 min 0 min 30 W/m 16,7 km/h (3 Bft)
09.02.2015 08:52 3,7 C 2,8 C 95 % 1029,6 hPa 0,0 l/m 0 min 0 min 22 W/m 14,6 km/h (3 Bft)
09.02.2015 08:54 3,7 C 2,8 C 95 % 1029,7 hPa 0,0 l/m 0 min 0 min 19 W/m 14,6 km/h (3 Bft)
09.02.2015 08:56 3,7 C 2,8 C 95 % 1029,7 hPa 0,0 l/m 0 min 0 min 19 W/m 10,5 km/h (2 Bft)
09.02.2015 08:58 3,7 C 2,8 C 95 % 1029,6 hPa 0,0 l/m 0 min 0 min 23 W/m 12,6 km/h (3 Bft)
09.02.2015 09:00 3,7 C 2,8 C 95 % 1029,5 hPa 0,0 l/m 0 min 0 min 27 W/m 14,6 km/h (3 Bft)
09.02.2015 09:02 3,7 C 2,8 C 95 % 1029,6 hPa 0,0 l/m 0 min 0 min 24 W/m 18,8 km/h (3 Bft)
09.02.2015 09:04 3,7 C 2,8 C 95 % 1029,6 hPa 0,0 l/m 0 min 0 min 24 W/m 18,8 km/h (3 Bft)
09.02.2015 09:06 3,7 C 2,8 C 95 % 1029,5 hPa 0,0 l/m 0 min 0 min 29 W/m 16,7 km/h (3 Bft)
09.02.2015 09:08 3,7 C 2,8 C 95 % 1029,5 hPa 0,0 l/m 0 min 0 min 31 W/m 14,6 km/h (3 Bft)
09.02.2015 09:10 3,7 C 2,8 C 95 % 1029,5 hPa 0,0 l/m 0 min 0 min 33 W/m 16,7 km/h (3 Bft)
09.02.2015 09:12 3,7 C 2,8 C 95 % 1029,6 hPa 0,0 l/m 0 min 0 min 34 W/m 16,7 km/h (3 Bft)
09.02.2015 09:14 3,7 C 2,8 C 95 % 1029,5 hPa 0,0 l/m 0 min 0 min 36 W/m 16,7 km/h (3 Bft)
09.02.2015 09:16 3,7 C 2,8 C 95 % 1029,5 hPa 0,0 l/m 0 min 0 min 32 W/m 23,0 km/h (4 Bft)
09.02.2015 09:18 3,7 C 2,8 C 95 % 1029,6 hPa 0,0 l/m 0 min 0 min 30 W/m 20,9 km/h (4 Bft)
09.02.2015 09:20 3,7 C 2,8 C 95 % 1029,5 hPa 0,0 l/m 0 min 0 min 30 W/m 18,8 km/h (3 Bft)
09.02.2015 09:22 3,7 C 2,8 C 95 % 1029,5 hPa 0,0 l/m 0 min 0 min 28 W/m 14,6 km/h (3 Bft)
09.02.2015 09:24 3,7 C 2,8 C 95 % 1029,5 hPa 0,0 l/m 0 min 0 min 27 W/m 20,9 km/h (4 Bft)
09.02.2015 09:26 3,7 C 2,8 C 95 % 1029,5 hPa 0,0 l/m 0 min 0 min 27 W/m 29,3 km/h (5 Bft)
09.02.2015 09:28 3,7 C 2,8 C 95 % 1029,5 hPa 0,0 l/m 0 min 0 min 34 W/m 16,7 km/h (3 Bft)
09.02.2015 09:30 3,7 C 2,8 C 95 % 1029,5 hPa 0,0 l/m 0 min 0 min 36 W/m 14,6 km/h (3 Bft)
09.02.2015 09:32 3,7 C 2,8 C 96 % 1029,5 hPa 0,0 l/m 0 min 0 min 35 W/m 16,7 km/h (3 Bft)
09.02.2015 09:34 3,7 C 2,8 C 96 % 1029,4 hPa 0,0 l/m 0 min 0 min 43 W/m 20,9 km/h (4 Bft)
09.02.2015 09:36 3,7 C 2,8 C 96 % 1029,4 hPa 0,0 l/m 0 min 0 min 50 W/m 14,6 km/h (3 Bft)
09.02.2015 09:38 3,8 C 2,8 C 96 % 1029,4 hPa 0,0 l/m 0 min 0 min 41 W/m 14,6 km/h (3 Bft)
09.02.2015 09:40 3,8 C 2,8 C 96 % 1029,4 hPa 0,0 l/m 0 min 0 min 39 W/m 16,7 km/h (3 Bft)
09.02.2015 09:42 3,8 C 2,8 C 96 % 1029,4 hPa 0,0 l/m 0 min 0 min 36 W/m 18,8 km/h (3 Bft)
09.02.2015 09:44 3,8 C 2,8 C 96 % 1029,3 hPa 0,0 l/m 0 min 0 min 42 W/m 14,6 km/h (3 Bft)
09.02.2015 09:46 3,8 C 2,8 C 96 % 1029,4 hPa 0,0 l/m 0 min 0 min 43 W/m 16,7 km/h (3 Bft)
09.02.2015 09:48 3,8 C 2,8 C 96 % 1029,3 hPa 0,0 l/m 0 min 0 min 46 W/m 20,9 km/h (4 Bft)
09.02.2015 09:50 3,8 C 2,8 C 96 % 1029,3 hPa 0,0 l/m 0 min 0 min 41 W/m 20,9 km/h (4 Bft)
09.02.2015 09:52 3,8 C 2,8 C 96 % 1029,3 hPa 0,0 l/m 0 min 0 min 46 W/m 20,9 km/h (4 Bft)
09.02.2015 09:54 3,8 C 2,8 C 96 % 1029,3 hPa 0,0 l/m 0 min 0 min 58 W/m 16,7 km/h (3 Bft)
09.02.2015 09:56 3,8 C 2,8 C 96 % 1029,3 hPa 0,0 l/m 0 min 0 min 67 W/m 16,7 km/h (3 Bft)
09.02.2015 09:58 3,8 C 2,8 C 96 % 1029,4 hPa 0,0 l/m 0 min 0 min 64 W/m 20,9 km/h (4 Bft)
09.02.2015 10:00 3,8 C 2,8 C 96 % 1029,3 hPa 0,0 l/m 0 min 0 min 63 W/m 18,8 km/h (3 Bft)
09.02.2015 10:02 3,9 C 2,8 C 96 % 1029,3 hPa 0,0 l/m 0 min 0 min 62 W/m 20,9 km/h (4 Bft)
09.02.2015 10:04 3,9 C 3,3 C 96 % 1029,3 hPa 0,0 l/m 0 min 0 min 70 W/m 16,7 km/h (3 Bft)
09.02.2015 10:06 3,9 C 3,3 C 96 % 1029,2 hPa 0,0 l/m 0 min 0 min 65 W/m 16,7 km/h (3 Bft)
09.02.2015 10:08 3,9 C 3,3 C 96 % 1029,2 hPa 0,0 l/m 0 min 0 min 61 W/m 16,7 km/h (3 Bft)
09.02.2015 10:10 3,9 C 3,3 C 96 % 1029,2 hPa 0,0 l/m 0 min 0 min 60 W/m 18,8 km/h (3 Bft)
09.02.2015 10:12 3,9 C 3,3 C 96 % 1029,1 hPa 0,0 l/m 0 min 0 min 57 W/m 16,7 km/h (3 Bft)
09.02.2015 10:14 3,9 C 3,3 C 96 % 1029,2 hPa 0,0 l/m 0 min 0 min 62 W/m 14,6 km/h (3 Bft)
09.02.2015 10:16 3,9 C 3,3 C 96 % 1029,2 hPa 0,0 l/m 0 min 0 min 81 W/m 18,8 km/h (3 Bft)
09.02.2015 10:18 4,0 C 3,3 C 96 % 1029,2 hPa 0,0 l/m 0 min 0 min 90 W/m 14,6 km/h (3 Bft)
09.02.2015 10:20 4,0 C 3,3 C 96 % 1029,3 hPa 0,0 l/m 0 min 0 min 91 W/m 12,6 km/h (3 Bft)
09.02.2015 10:22 4,0 C 3,3 C 96 % 1029,2 hPa 0,0 l/m 0 min 0 min 85 W/m 10,5 km/h (2 Bft)
09.02.2015 10:24 4,1 C 3,3 C 96 % 1029,2 hPa 0,0 l/m 0 min 0 min 76 W/m 18,8 km/h (3 Bft)
09.02.2015 10:26 4,1 C 3,3 C 96 % 1029,1 hPa 0,0 l/m 0 min 0 min 79 W/m 14,6 km/h (3 Bft)
09.02.2015 10:28 4,1 C 3,3 C 96 % 1029,1 hPa 0,0 l/m 0 min 0 min 90 W/m 20,9 km/h (4 Bft)
09.02.2015 10:30 4,1 C 3,9 C 96 % 1029,1 hPa 0,0 l/m 0 min 0 min 110 W/m 14,6 km/h (3 Bft)
09.02.2015 10:32 4,2 C 3,9 C 96 % 1029,1 hPa 0,0 l/m 0 min 0 min 100 W/m 12,6 km/h (3 Bft)
09.02.2015 10:34 4,2 C 3,9 C 96 % 1029,1 hPa 0,0 l/m 0 min 0 min 105 W/m 20,9 km/h (4 Bft)
09.02.2015 10:36 4,2 C 3,9 C 96 % 1029,2 hPa 0,0 l/m 0 min 0 min 76 W/m 20,9 km/h (4 Bft)
09.02.2015 10:38 4,2 C 3,9 C 96 % 1029,2 hPa 0,0 l/m 0 min 0 min 64 W/m 14,6 km/h (3 Bft)
09.02.2015 10:40 4,2 C 3,9 C 96 % 1029,2 hPa 0,0 l/m 0 min 0 min 78 W/m 18,8 km/h (3 Bft)
09.02.2015 10:42 4,2 C 3,9 C 96 % 1029,2 hPa 0,0 l/m 0 min 0 min 84 W/m 14,6 km/h (3 Bft)
09.02.2015 10:44 4,2 C 3,9 C 96 % 1029,3 hPa 0,0 l/m 0 min 0 min 92 W/m 18,8 km/h (3 Bft)
09.02.2015 10:46 4,3 C 3,9 C 96 % 1029,1 hPa 0,0 l/m 0 min 0 min 100 W/m 16,7 km/h (3 Bft)
09.02.2015 10:48 4,3 C 3,9 C 96 % 1029,1 hPa 0,0 l/m 0 min 0 min 82 W/m 20,9 km/h (4 Bft)
09.02.2015 10:50 4,3 C 3,9 C 96 % 1029,2 hPa 0,0 l/m 0 min 0 min 81 W/m 16,7 km/h (3 Bft)
09.02.2015 10:52 4,3 C 3,9 C 96 % 1029,2 hPa 0,0 l/m 0 min 0 min 76 W/m 14,6 km/h (3 Bft)
09.02.2015 10:54 4,3 C 3,9 C 96 % 1029,2 hPa 0,0 l/m 0 min 0 min 69 W/m 20,9 km/h (4 Bft)
09.02.2015 10:56 4,4 C 3,9 C 96 % 1029,2 hPa 0,0 l/m 0 min 0 min 64 W/m 14,6 km/h (3 Bft)
09.02.2015 10:58 4,4 C 3,9 C 96 % 1029,2 hPa 0,0 l/m 0 min 0 min 56 W/m 20,9 km/h (4 Bft)
09.02.2015 11:00 4,4 C 3,9 C 96 % 1029,1 hPa 0,0 l/m 0 min 0 min 53 W/m 16,7 km/h (3 Bft)
09.02.2015 11:02 4,4 C 3,9 C 96 % 1029,2 hPa 0,0 l/m 0 min 0 min 52 W/m 12,6 km/h (3 Bft)
09.02.2015 11:04 4,4 C 3,9 C 96 % 1029,2 hPa 0,0 l/m 0 min 0 min 57 W/m 16,7 km/h (3 Bft)
09.02.2015 11:06 4,4 C 3,9 C 96 % 1029,3 hPa 0,0 l/m 0 min 0 min 62 W/m 12,6 km/h (3 Bft)
09.02.2015 11:08 4,4 C 3,9 C 96 % 1029,2 hPa 0,0 l/m 0 min 0 min 65 W/m 18,8 km/h (3 Bft)
09.02.2015 11:10 4,4 C 3,9 C 96 % 1029,3 hPa 0,0 l/m 0 min 0 min 73 W/m 12,6 km/h (3 Bft)
09.02.2015 11:12 4,4 C 3,9 C 96 % 1029,3 hPa 0,0 l/m 0 min 0 min 85 W/m 14,6 km/h (3 Bft)
09.02.2015 11:14 4,4 C 3,9 C 96 % 1029,3 hPa 0,0 l/m 0 min 0 min 74 W/m 12,6 km/h (3 Bft)
09.02.2015 11:16 4,4 C 3,9 C 96 % 1029,3 hPa 0,0 l/m 0 min 0 min 79 W/m 12,6 km/h (3 Bft)
09.02.2015 11:18 4,5 C 3,9 C 96 % 1029,3 hPa 0,0 l/m 0 min 0 min 83 W/m 18,8 km/h (3 Bft)
09.02.2015 11:20 4,5 C 3,9 C 96 % 1029,3 hPa 0,0 l/m 0 min 0 min 81 W/m 18,8 km/h (3 Bft)
09.02.2015 11:22 4,5 C 3,9 C 96 % 1029,3 hPa 0,0 l/m 0 min 0 min 86 W/m 23,0 km/h (4 Bft)
09.02.2015 11:24 4,6 C 3,9 C 96 % 1029,4 hPa 0,0 l/m 0 min 0 min 90 W/m 27,2 km/h (4 Bft)
09.02.2015 11:26 4,6 C 3,9 C 96 % 1029,4 hPa 0,0 l/m 0 min 0 min 89 W/m 16,7 km/h (3 Bft)
09.02.2015 11:28 4,6 C 3,9 C 96 % 1029,4 hPa 0,0 l/m 0 min 0 min 81 W/m 16,7 km/h (3 Bft)
09.02.2015 11:30 4,6 C 3,9 C 96 % 1029,5 hPa 0,0 l/m 0 min 0 min 84 W/m 23,0 km/h (4 Bft)
09.02.2015 11:32 4,6 C 4,4 C 96 % 1029,5 hPa 0,0 l/m 0 min 0 min 82 W/m 16,7 km/h (3 Bft)
09.02.2015 11:34 4,6 C 4,4 C 96 % 1029,5 hPa 0,0 l/m 0 min 0 min 82 W/m 14,6 km/h (3 Bft)
09.02.2015 11:36 4,7 C 4,4 C 96 % 1029,5 hPa 0,0 l/m 0 min 0 min 84 W/m 20,9 km/h (4 Bft)
09.02.2015 11:38 4,7 C 4,4 C 96 % 1029,5 hPa 0,0 l/m 0 min 0 min 75 W/m 16,7 km/h (3 Bft)
09.02.2015 11:40 4,7 C 3,9 C 96 % 1029,5 hPa 0,0 l/m 0 min 0 min 66 W/m 18,8 km/h (3 Bft)
09.02.2015 11:42 4,7 C 3,9 C 96 % 1029,5 hPa 0,0 l/m 0 min 0 min 62 W/m 18,8 km/h (3 Bft)
09.02.2015 11:44 4,7 C 3,9 C 96 % 1029,5 hPa 0,0 l/m 0 min 0 min 71 W/m 16,7 km/h (3 Bft)
09.02.2015 11:46 4,7 C 3,9 C 96 % 1029,5 hPa 0,0 l/m 0 min 0 min 76 W/m 27,2 km/h (4 Bft)
09.02.2015 11:48 4,7 C 3,9 C 96 % 1029,5 hPa 0,0 l/m 0 min 0 min 78 W/m 16,7 km/h (3 Bft)
09.02.2015 11:50 4,7 C 4,4 C 96 % 1029,4 hPa 0,0 l/m 0 min 0 min 84 W/m 18,8 km/h (3 Bft)
09.02.2015 11:52 4,7 C 4,4 C 96 % 1029,4 hPa 0,0 l/m 0 min 0 min 83 W/m 20,9 km/h (4 Bft)
09.02.2015 11:54 4,8 C 4,4 C 96 % 1029,4 hPa 0,0 l/m 0 min 0 min 78 W/m 20,9 km/h (4 Bft)
09.02.2015 11:56 4,8 C 4,4 C 96 % 1029,3 hPa 0,0 l/m 0 min 0 min 83 W/m 20,9 km/h (4 Bft)
09.02.2015 11:58 4,8 C 4,4 C 96 % 1029,3 hPa 0,0 l/m 0 min 0 min 85 W/m 16,7 km/h (3 Bft)
09.02.2015 12:00 4,8 C 4,4 C 96 % 1029,3 hPa 0,0 l/m 0 min 0 min 88 W/m 20,9 km/h (4 Bft)
09.02.2015 12:02 4,8 C 4,4 C 96 % 1029,4 hPa 0,0 l/m 0 min 0 min 76 W/m 16,7 km/h (3 Bft)
09.02.2015 12:05 4,8 C 4,4 C 96 % 1029,4 hPa 0,0 l/m 0 min 0 min 69 W/m 14,6 km/h (3 Bft)
09.02.2015 12:06 4,8 C 4,4 C 96 % 1029,4 hPa 0,0 l/m 0 min 0 min 63 W/m 14,6 km/h (3 Bft)
09.02.2015 12:08 4,8 C 4,4 C 96 % 1029,4 hPa 0,0 l/m 0 min 0 min 65 W/m 16,7 km/h (3 Bft)
09.02.2015 12:10 4,8 C 4,4 C 96 % 1029,4 hPa 0,0 l/m 0 min 0 min 71 W/m 16,7 km/h (3 Bft)
09.02.2015 12:12 4,8 C 4,4 C 96 % 1029,3 hPa 0,0 l/m 0 min 0 min 72 W/m 16,7 km/h (3 Bft)
09.02.2015 12:14 4,9 C 4,4 C 96 % 1029,3 hPa 0,0 l/m 0 min 0 min 70 W/m 16,7 km/h (3 Bft)
09.02.2015 12:16 4,9 C 4,4 C 96 % 1029,2 hPa 0,0 l/m 0 min 0 min 66 W/m 16,7 km/h (3 Bft)
09.02.2015 12:18 4,9 C 4,4 C 96 % 1029,2 hPa 0,0 l/m 0 min 0 min 68 W/m 14,6 km/h (3 Bft)
09.02.2015 12:20 4,9 C 4,4 C 96 % 1029,1 hPa 0,0 l/m 0 min 0 min 62 W/m 10,5 km/h (2 Bft)
09.02.2015 12:22 4,9 C 4,4 C 96 % 1029,1 hPa 0,0 l/m 0 min 0 min 47 W/m 12,6 km/h (3 Bft)
09.02.2015 12:24 4,9 C 3,9 C 96 % 1029,2 hPa 0,0 l/m 0 min 0 min 44 W/m 14,6 km/h (3 Bft)
09.02.2015 12:26 4,9 C 3,9 C 96 % 1029,2 hPa 0,0 l/m 0 min 0 min 48 W/m 14,6 km/h (3 Bft)
09.02.2015 12:28 4,9 C 3,9 C 96 % 1029,2 hPa 0,0 l/m 0 min 0 min 54 W/m 14,6 km/h (3 Bft)
09.02.2015 12:30 4,9 C 3,9 C 96 % 1029,1 hPa 0,0 l/m 0 min 0 min 67 W/m 14,6 km/h (3 Bft)
09.02.2015 12:35 4,9 C 4,4 C 96 % 1029,0 hPa 0,0 l/m 0 min 0 min 76 W/m 16,7 km/h (3 Bft)
09.02.2015 12:40 4,9 C 4,4 C 96 % 1029,0 hPa 0,0 l/m 0 min 0 min 65 W/m 18,8 km/h (3 Bft)
09.02.2015 12:52 5,0 C 3,9 C 95 % 1028,8 hPa 0,0 l/m 0 min 0 min 49 W/m 10,5 km/h (2 Bft)
09.02.2015 12:54 5,0 C 3,9 C 95 % 1028,8 hPa 0,0 l/m 0 min 0 min 52 W/m 16,7 km/h (3 Bft)
09.02.2015 12:56 5,0 C 3,9 C 95 % 1028,8 hPa 0,0 l/m 0 min 0 min 58 W/m 14,6 km/h (3 Bft)
09.02.2015 13:02 5,1 C 4,4 C 95 % 1028,7 hPa 0,0 l/m 0 min 0 min 77 W/m 10,5 km/h (2 Bft)
09.02.2015 13:04 5,1 C 4,4 C 95 % 1028,7 hPa 0,0 l/m 0 min 0 min 79 W/m 10,5 km/h (2 Bft)
09.02.2015 13:06 5,1 C 4,4 C 95 % 1028,7 hPa 0,0 l/m 0 min 0 min 62 W/m 16,7 km/h (3 Bft)
09.02.2015 13:08 5,1 C 4,4 C 95 % 1028,7 hPa 0,0 l/m 0 min 0 min 56 W/m 18,8 km/h (3 Bft)
09.02.2015 13:10 5,1 C 4,4 C 95 % 1028,6 hPa 0,0 l/m 0 min 0 min 64 W/m 14,6 km/h (3 Bft)
09.02.2015 13:12 5,1 C 4,4 C 95 % 1028,5 hPa 0,0 l/m 0 min 0 min 84 W/m 14,6 km/h (3 Bft)
09.02.2015 13:14 5,1 C 4,4 C 95 % 1028,5 hPa 0,0 l/m 0 min 0 min 108 W/m 12,6 km/h (3 Bft)
09.02.2015 13:16 5,2 C 4,4 C 95 % 1028,5 hPa 0,0 l/m 0 min 0 min 104 W/m 16,7 km/h (3 Bft)
09.02.2015 13:18 5,2 C 4,4 C 96 % 1028,5 hPa 0,0 l/m 0 min 0 min 83 W/m 16,7 km/h (3 Bft)
09.02.2015 13:20 5,2 C 4,4 C 96 % 1028,4 hPa 0,0 l/m 0 min 0 min 61 W/m 16,7 km/h (3 Bft)
09.02.2015 13:22 5,2 C 4,4 C 96 % 1028,4 hPa 0,0 l/m 0 min 0 min 67 W/m 14,6 km/h (3 Bft)
09.02.2015 13:24 5,3 C 5,0 C 96 % 1028,4 hPa 0,0 l/m 0 min 0 min 96 W/m 14,6 km/h (3 Bft)
09.02.2015 13:26 5,3 C 5,0 C 96 % 1028,4 hPa 0,0 l/m 0 min 0 min 118 W/m 14,6 km/h (3 Bft)
09.02.2015 13:28 5,3 C 5,0 C 96 % 1028,3 hPa 0,0 l/m 0 min 0 min 86 W/m 18,8 km/h (3 Bft)
09.02.2015 13:30 5,4 C 5,0 C 96 % 1028,3 hPa 0,0 l/m 0 min 0 min 65 W/m 33,5 km/h (5 Bft)
09.02.2015 13:32 5,4 C 5,0 C 96 % 1028,3 hPa 0,0 l/m 0 min 0 min 64 W/m 14,6 km/h (3 Bft)
09.02.2015 13:34 5,4 C 5,0 C 96 % 1028,3 hPa 0,0 l/m 0 min 0 min 72 W/m 16,7 km/h (3 Bft)
09.02.2015 13:36 5,4 C 5,0 C 96 % 1028,3 hPa 0,0 l/m 0 min 0 min 87 W/m 16,7 km/h (3 Bft)
09.02.2015 13:38 5,4 C 5,0 C 96 % 1028,3 hPa 0,0 l/m 0 min 0 min 101 W/m 18,8 km/h (3 Bft)
09.02.2015 13:40 5,5 C 5,0 C 96 % 1028,3 hPa 0,0 l/m 0 min 0 min 125 W/m 18,8 km/h (3 Bft)
09.02.2015 13:42 5,5 C 5,6 C 96 % 1028,4 hPa 0,0 l/m 0 min 0 min 139 W/m 27,2 km/h (4 Bft)
09.02.2015 13:44 5,6 C 5,6 C 96 % 1028,4 hPa 0,0 l/m 0 min 0 min 170 W/m 14,6 km/h (3 Bft)
09.02.2015 13:46 5,6 C 6,1 C 96 % 1028,4 hPa 0,0 l/m 0 min 0 min 167 W/m 14,6 km/h (3 Bft)
09.02.2015 13:48 5,7 C 6,1 C 96 % 1028,3 hPa 0,0 l/m 0 min 0 min 166 W/m 16,7 km/h (3 Bft)
09.02.2015 13:50 5,7 C 6,1 C 96 % 1028,4 hPa 0,0 l/m 0 min 0 min 161 W/m 25,1 km/h (4 Bft)
09.02.2015 13:52 5,8 C 6,1 C 96 % 1028,4 hPa 0,0 l/m 0 min 0 min 124 W/m 14,6 km/h (3 Bft)
09.02.2015 13:54 5,8 C 5,6 C 96 % 1028,4 hPa 0,0 l/m 0 min 0 min 92 W/m 20,9 km/h (4 Bft)
09.02.2015 13:56 5,8 C 5,6 C 96 % 1028,4 hPa 0,0 l/m 0 min 0 min 85 W/m 23,0 km/h (4 Bft)
09.02.2015 13:58 5,9 C 5,6 C 95 % 1028,4 hPa 0,0 l/m 0 min 0 min 75 W/m 23,0 km/h (4 Bft)
09.02.2015 14:00 5,9 C 5,6 C 96 % 1028,2 hPa 0,0 l/m 0 min 0 min 73 W/m 18,8 km/h (3 Bft)
09.02.2015 14:02 5,9 C 5,6 C 96 % 1028,1 hPa 0,0 l/m 0 min 0 min 53 W/m 18,8 km/h (3 Bft)
09.02.2015 14:04 5,9 C 5,0 C 95 % 1028,1 hPa 0,0 l/m 0 min 0 min 48 W/m 18,8 km/h (3 Bft)
09.02.2015 14:06 5,9 C 5,0 C 95 % 1028,1 hPa 0,0 l/m 0 min 0 min 42 W/m 20,9 km/h (4 Bft)
09.02.2015 14:08 5,9 C 5,0 C 95 % 1028,1 hPa 0,0 l/m 0 min 0 min 38 W/m 25,1 km/h (4 Bft)
09.02.2015 14:10 5,9 C 5,0 C 95 % 1028,1 hPa 0,0 l/m 0 min 0 min 36 W/m 23,0 km/h (4 Bft)
09.02.2015 14:12 5,9 C 5,0 C 95 % 1028,1 hPa 0,0 l/m 0 min 0 min 40 W/m 18,8 km/h (3 Bft)
09.02.2015 14:14 5,9 C 5,0 C 95 % 1028,1 hPa 0,0 l/m 0 min 0 min 77 W/m 20,9 km/h (4 Bft)
09.02.2015 14:16 5,9 C 5,0 C 95 % 1028,2 hPa 0,0 l/m 0 min 0 min 116 W/m 18,8 km/h (3 Bft)
09.02.2015 14:18 5,9 C 5,6 C 95 % 1028,1 hPa 0,0 l/m 0 min 0 min 125 W/m 27,2 km/h (4 Bft)
09.02.2015 14:20 6,0 C 5,6 C 95 % 1028,1 hPa 0,0 l/m 0 min 0 min 131 W/m 25,1 km/h (4 Bft)
09.02.2015 14:22 6,0 C 5,6 C 95 % 1028,1 hPa 0,0 l/m 0 min 0 min 126 W/m 14,6 km/h (3 Bft)
09.02.2015 14:24 6,0 C 5,6 C 95 % 1028,1 hPa 0,0 l/m 0 min 0 min 118 W/m 20,9 km/h (4 Bft)
09.02.2015 14:26 6,1 C 5,6 C 95 % 1028,1 hPa 0,0 l/m 0 min 0 min 109 W/m 18,8 km/h (3 Bft)
09.02.2015 14:28 6,1 C 5,6 C 94 % 1028,2 hPa 0,0 l/m 0 min 0 min 101 W/m 29,3 km/h (5 Bft)
09.02.2015 14:30 6,1 C 5,6 C 94 % 1028,1 hPa 0,0 l/m 0 min 0 min 103 W/m 14,6 km/h (3 Bft)
09.02.2015 14:32 6,1 C 5,6 C 94 % 1028,2 hPa 0,0 l/m 0 min 0 min 93 W/m 14,6 km/h (3 Bft)
09.02.2015 14:34 6,1 C 5,6 C 94 % 1028,2 hPa 0,0 l/m 0 min 0 min 80 W/m 27,2 km/h (4 Bft)
09.02.2015 14:36 6,1 C 5,6 C 94 % 1028,1 hPa 0,0 l/m 0 min 0 min 78 W/m 25,1 km/h (4 Bft)
09.02.2015 14:38 6,1 C 5,6 C 94 % 1028,2 hPa 0,0 l/m 0 min 0 min 64 W/m 23,0 km/h (4 Bft)
09.02.2015 14:40 6,1 C 5,6 C 94 % 1028,2 hPa 0,0 l/m 0 min 0 min 66 W/m 20,9 km/h (4 Bft)
09.02.2015 14:42 6,1 C 5,0 C 94 % 1028,2 hPa 0,0 l/m 0 min 0 min 58 W/m 16,7 km/h (3 Bft)
09.02.2015 14:44 6,1 C 5,0 C 94 % 1028,2 hPa 0,0 l/m 0 min 0 min 48 W/m 20,9 km/h (4 Bft)
09.02.2015 14:46 6,1 C 5,0 C 94 % 1028,3 hPa 0,0 l/m 0 min 0 min 49 W/m 18,8 km/h (3 Bft)
09.02.2015 14:48 6,1 C 5,0 C 94 % 1028,3 hPa 0,0 l/m 0 min 0 min 52 W/m 18,8 km/h (3 Bft)
09.02.2015 14:50 6,1 C 5,0 C 94 % 1028,2 hPa 0,0 l/m 0 min 0 min 45 W/m 12,6 km/h (3 Bft)
09.02.2015 14:52 6,1 C 5,0 C 94 % 1028,3 hPa 0,0 l/m 0 min 0 min 49 W/m 18,8 km/h (3 Bft)
09.02.2015 14:54 6,1 C 5,0 C 93 % 1028,3 hPa 0,0 l/m 0 min 0 min 44 W/m 18,8 km/h (3 Bft)
09.02.2015 14:56 6,1 C 4,4 C 93 % 1028,3 hPa 0,0 l/m 0 min 0 min 34 W/m 14,6 km/h (3 Bft)
09.02.2015 14:58 6,1 C 4,4 C 93 % 1028,2 hPa 0,0 l/m 0 min 0 min 38 W/m 18,8 km/h (3 Bft)
09.02.2015 15:00 6,1 C 4,4 C 93 % 1028,2 hPa 0,0 l/m 0 min 0 min 31 W/m 25,1 km/h (4 Bft)
09.02.2015 15:02 6,1 C 4,4 C 93 % 1028,3 hPa 0,0 l/m 0 min 0 min 33 W/m 23,0 km/h (4 Bft)
09.02.2015 15:04 6,1 C 4,4 C 93 % 1028,3 hPa 0,0 l/m 0 min 0 min 34 W/m 18,8 km/h (3 Bft)
09.02.2015 15:06 6,0 C 4,4 C 93 % 1028,3 hPa 0,0 l/m 0 min 0 min 39 W/m 20,9 km/h (4 Bft)
09.02.2015 15:08 6,0 C 4,4 C 93 % 1028,3 hPa 0,0 l/m 0 min 0 min 39 W/m 20,9 km/h (4 Bft)
09.02.2015 15:10 6,0 C 4,4 C 93 % 1028,2 hPa 0,0 l/m 0 min 0 min 40 W/m 14,6 km/h (3 Bft)
09.02.2015 15:12 6,0 C 4,4 C 93 % 1028,3 hPa 0,0 l/m 0 min 0 min 33 W/m 16,7 km/h (3 Bft)
09.02.2015 15:14 6,0 C 4,4 C 93 % 1028,2 hPa 0,0 l/m 0 min 0 min 28 W/m 20,9 km/h (4 Bft)
09.02.2015 15:16 5,9 C 4,4 C 93 % 1028,2 hPa 0,0 l/m 0 min 2 min 23 W/m 18,8 km/h (3 Bft)
09.02.2015 15:18 5,9 C 4,4 C 93 % 1028,2 hPa 0,0 l/m 0 min 0 min 21 W/m 16,7 km/h (3 Bft)
09.02.2015 15:20 5,9 C 4,4 C 93 % 1028,2 hPa 0,0 l/m 0 min 0 min 26 W/m 14,6 km/h (3 Bft)
09.02.2015 15:22 5,9 C 4,4 C 93 % 1028,2 hPa 0,0 l/m 0 min 0 min 35 W/m 14,6 km/h (3 Bft)
09.02.2015 15:24 5,9 C 4,4 C 93 % 1028,2 hPa 0,0 l/m 0 min 0 min 40 W/m 12,6 km/h (3 Bft)
09.02.2015 15:26 5,9 C 4,4 C 94 % 1028,2 hPa 0,0 l/m 0 min 0 min 50 W/m 10,5 km/h (2 Bft)
09.02.2015 15:28 5,9 C 4,4 C 94 % 1028,3 hPa 0,0 l/m 0 min 0 min 58 W/m 12,6 km/h (3 Bft)
09.02.2015 15:30 5,9 C 4,4 C 94 % 1028,3 hPa 0,0 l/m 0 min 0 min 52 W/m 10,5 km/h (2 Bft)
09.02.2015 15:32 5,9 C 4,4 C 94 % 1028,2 hPa 0,0 l/m 0 min 0 min 48 W/m 16,7 km/h (3 Bft)
09.02.2015 15:34 5,9 C 4,4 C 94 % 1028,3 hPa 0,0 l/m 0 min 0 min 45 W/m 18,8 km/h (3 Bft)
09.02.2015 15:36 5,8 C 4,4 C 94 % 1028,3 hPa 0,0 l/m 0 min 0 min 45 W/m 16,7 km/h (3 Bft)
09.02.2015 15:38 5,9 C 4,4 C 94 % 1028,3 hPa 0,0 l/m 0 min 0 min 46 W/m 14,6 km/h (3 Bft)
09.02.2015 15:40 5,8 C 4,4 C 94 % 1028,4 hPa 0,0 l/m 0 min 0 min 45 W/m 16,7 km/h (3 Bft)
09.02.2015 15:42 5,8 C 4,4 C 94 % 1028,4 hPa 0,0 l/m 0 min 0 min 42 W/m 14,6 km/h (3 Bft)
09.02.2015 15:44 5,8 C 4,4 C 94 % 1028,4 hPa 0,0 l/m 0 min 0 min 40 W/m 10,5 km/h (2 Bft)
09.02.2015 15:46 5,8 C 4,4 C 94 % 1028,5 hPa 0,0 l/m 0 min 0 min 40 W/m 16,7 km/h (3 Bft)
09.02.2015 15:48 5,8 C 4,4 C 94 % 1028,5 hPa 0,0 l/m 0 min 0 min 39 W/m 14,6 km/h (3 Bft)
09.02.2015 15:50 5,8 C 4,4 C 94 % 1028,5 hPa 0,0 l/m 0 min 0 min 39 W/m 20,9 km/h (4 Bft)
09.02.2015 15:52 5,8 C 4,4 C 94 % 1028,5 hPa 0,0 l/m 0 min 0 min 41 W/m 20,9 km/h (4 Bft)
09.02.2015 15:54 5,8 C 4,4 C 94 % 1028,6 hPa 0,0 l/m 0 min 0 min 41 W/m 18,8 km/h (3 Bft)
09.02.2015 15:56 5,8 C 4,4 C 94 % 1028,6 hPa 0,0 l/m 0 min 0 min 38 W/m 16,7 km/h (3 Bft)
09.02.2015 15:58 5,8 C 4,4 C 94 % 1028,5 hPa 0,0 l/m 0 min 0 min 33 W/m 16,7 km/h (3 Bft)
09.02.2015 16:00 5,8 C 4,4 C 94 % 1028,5 hPa 0,0 l/m 0 min 0 min 32 W/m 23,0 km/h (4 Bft)
09.02.2015 16:02 5,8 C 4,4 C 94 % 1028,5 hPa 0,0 l/m 0 min 0 min 34 W/m 20,9 km/h (4 Bft)
09.02.2015 16:04 5,8 C 4,4 C 94 % 1028,5 hPa 0,0 l/m 0 min 0 min 40 W/m 20,9 km/h (4 Bft)
09.02.2015 16:06 5,8 C 4,4 C 94 % 1028,5 hPa 0,0 l/m 0 min 0 min 43 W/m 16,7 km/h (3 Bft)
09.02.2015 16:08 5,8 C 4,4 C 94 % 1028,5 hPa 0,0 l/m 0 min 0 min 42 W/m 16,7 km/h (3 Bft)
09.02.2015 16:10 5,8 C 4,4 C 94 % 1028,6 hPa 0,0 l/m 0 min 0 min 36 W/m 18,8 km/h (3 Bft)
09.02.2015 16:12 5,8 C 4,4 C 94 % 1028,5 hPa 0,0 l/m 0 min 0 min 29 W/m 16,7 km/h (3 Bft)
09.02.2015 16:14 5,8 C 4,4 C 94 % 1028,6 hPa 0,0 l/m 0 min 0 min 26 W/m 14,6 km/h (3 Bft)
09.02.2015 16:16 5,8 C 4,4 C 94 % 1028,6 hPa 0,0 l/m 0 min 0 min 29 W/m 14,6 km/h (3 Bft)
09.02.2015 16:18 5,8 C 4,4 C 94 % 1028,6 hPa 0,0 l/m 0 min 0 min 35 W/m 14,6 km/h (3 Bft)
09.02.2015 16:20 5,8 C 4,4 C 94 % 1028,6 hPa 0,0 l/m 0 min 0 min 39 W/m 18,8 km/h (3 Bft)
09.02.2015 16:22 5,8 C 4,4 C 94 % 1028,6 hPa 0,0 l/m 0 min 0 min 39 W/m 14,6 km/h (3 Bft)
09.02.2015 16:24 5,8 C 4,4 C 94 % 1028,6 hPa 0,0 l/m 0 min 0 min 37 W/m 14,6 km/h (3 Bft)
09.02.2015 16:26 5,8 C 4,4 C 94 % 1028,5 hPa 0,0 l/m 0 min 0 min 33 W/m 12,6 km/h (3 Bft)
09.02.2015 16:28 5,9 C 4,4 C 94 % 1028,6 hPa 0,0 l/m 0 min 0 min 28 W/m 10,5 km/h (2 Bft)
09.02.2015 16:30 5,9 C 4,4 C 94 % 1028,6 hPa 0,0 l/m 0 min 0 min 26 W/m 14,6 km/h (3 Bft)
09.02.2015 16:32 5,8 C 4,4 C 94 % 1028,6 hPa 0,0 l/m 0 min 0 min 26 W/m 18,8 km/h (3 Bft)
09.02.2015 16:34 5,8 C 4,4 C 94 % 1028,6 hPa 0,0 l/m 0 min 0 min 26 W/m 12,6 km/h (3 Bft)
09.02.2015 16:36 5,9 C 4,4 C 94 % 1028,6 hPa 0,0 l/m 0 min 0 min 25 W/m 23,0 km/h (4 Bft)
09.02.2015 16:38 5,8 C 4,4 C 94 % 1028,6 hPa 0,0 l/m 0 min 0 min 26 W/m 16,7 km/h (3 Bft)
09.02.2015 16:40 5,8 C 4,4 C 94 % 1028,6 hPa 0,0 l/m 0 min 0 min 26 W/m 18,8 km/h (3 Bft)
09.02.2015 16:42 5,9 C 4,4 C 94 % 1028,6 hPa 0,0 l/m 0 min 0 min 26 W/m 16,7 km/h (3 Bft)
09.02.2015 16:44 5,9 C 4,4 C 94 % 1028,7 hPa 0,0 l/m 0 min 0 min 23 W/m 14,6 km/h (3 Bft)
09.02.2015 16:46 5,9 C 4,4 C 94 % 1028,6 hPa 0,0 l/m 0 min 0 min 21 W/m 14,6 km/h (3 Bft)
09.02.2015 16:48 5,9 C 4,4 C 94 % 1028,7 hPa 0,0 l/m 0 min 0 min 19 W/m 8,4 km/h (2 Bft)
09.02.2015 16:50 5,8 C 4,4 C 94 % 1028,6 hPa 0,0 l/m 0 min 0 min 16 W/m 14,6 km/h (3 Bft)
09.02.2015 16:52 5,8 C 4,4 C 94 % 1028,7 hPa 0,0 l/m 0 min 0 min 15 W/m 18,8 km/h (3 Bft)
09.02.2015 16:54 5,8 C 4,4 C 94 % 1028,7 hPa 0,0 l/m 0 min 0 min 15 W/m 16,7 km/h (3 Bft)
09.02.2015 16:56 5,8 C 4,4 C 94 % 1028,7 hPa 0,0 l/m 0 min 0 min 14 W/m 14,6 km/h (3 Bft)
09.02.2015 16:58 5,8 C 4,4 C 94 % 1028,8 hPa 0,0 l/m 0 min 0 min 12 W/m 12,6 km/h (3 Bft)
09.02.2015 17:00 5,8 C 4,4 C 94 % 1028,8 hPa 0,0 l/m 0 min 0 min 12 W/m 12,6 km/h (3 Bft)
09.02.2015 17:02 5,8 C 4,4 C 94 % 1028,8 hPa 0,0 l/m 0 min 0 min 11 W/m 18,8 km/h (3 Bft)
09.02.2015 17:04 5,8 C 4,4 C 94 % 1028,8 hPa 0,0 l/m 0 min 0 min 11 W/m 18,8 km/h (3 Bft)
09.02.2015 17:06 5,8 C 4,4 C 94 % 1028,8 hPa 0,0 l/m 0 min 0 min 9 W/m 18,8 km/h (3 Bft)
09.02.2015 17:08 5,8 C 4,4 C 94 % 1028,8 hPa 0,0 l/m 0 min 0 min 9 W/m 14,6 km/h (3 Bft)
09.02.2015 17:10 5,8 C 4,4 C 94 % 1028,8 hPa 0,0 l/m 0 min 0 min 9 W/m 14,6 km/h (3 Bft)
09.02.2015 17:12 5,8 C 4,4 C 94 % 1028,8 hPa 0,0 l/m 0 min 0 min 9 W/m 10,5 km/h (2 Bft)
09.02.2015 17:14 5,8 C 4,4 C 94 % 1028,8 hPa 0,0 l/m 0 min 0 min 9 W/m 10,5 km/h (2 Bft)
09.02.2015 17:16 5,8 C 4,4 C 94 % 1028,9 hPa 0,0 l/m 0 min 0 min 7 W/m 10,5 km/h (2 Bft)
09.02.2015 17:18 5,8 C 4,4 C 94 % 1028,9 hPa 0,0 l/m 0 min 0 min 7 W/m 12,6 km/h (3 Bft)
09.02.2015 17:20 5,7 C 4,4 C 94 % 1028,9 hPa 0,0 l/m 0 min 0 min 6 W/m 8,4 km/h (2 Bft)
09.02.2015 17:22 5,7 C 4,4 C 94 % 1028,9 hPa 0,0 l/m 0 min 0 min 5 W/m 14,6 km/h (3 Bft)
09.02.2015 17:24 5,7 C 3,9 C 94 % 1028,8 hPa 0,0 l/m 0 min 0 min 5 W/m 8,4 km/h (2 Bft)
09.02.2015 17:26 5,7 C 3,9 C 94 % 1028,8 hPa 0,0 l/m 0 min 0 min 4 W/m 14,6 km/h (3 Bft)
09.02.2015 17:28 5,7 C 3,9 C 94 % 1028,9 hPa 0,0 l/m 0 min 0 min 0 W/m 12,6 km/h (3 Bft)
09.02.2015 17:30 5,7 C 3,9 C 94 % 1028,9 hPa 0,0 l/m 0 min 0 min 0 W/m 14,6 km/h (3 Bft)
09.02.2015 17:32 5,7 C 3,9 C 94 % 1028,9 hPa 0,0 l/m 0 min 0 min 0 W/m 12,6 km/h (3 Bft)
09.02.2015 17:34 5,7 C 3,9 C 93 % 1029,0 hPa 0,0 l/m 0 min 0 min 0 W/m 14,6 km/h (3 Bft)
09.02.2015 17:36 5,7 C 3,9 C 93 % 1029,0 hPa 0,0 l/m 0 min 0 min 0 W/m 10,5 km/h (2 Bft)
09.02.2015 17:38 5,7 C 3,9 C 93 % 1029,0 hPa 0,0 l/m 0 min 0 min 0 W/m 12,6 km/h (3 Bft)
09.02.2015 17:40 5,7 C 3,9 C 94 % 1029,0 hPa 0,0 l/m 0 min 0 min 0 W/m 12,6 km/h (3 Bft)
09.02.2015 17:42 5,7 C 3,9 C 94 % 1029,0 hPa 0,0 l/m 0 min 0 min 0 W/m 8,4 km/h (2 Bft)
09.02.2015 17:44 5,7 C 3,9 C 94 % 1028,9 hPa 0,0 l/m 0 min 0 min 0 W/m 10,5 km/h (2 Bft)
09.02.2015 17:46 5,7 C 3,9 C 94 % 1028,9 hPa 0,0 l/m 0 min 0 min 0 W/m 10,5 km/h (2 Bft)
09.02.2015 17:48 5,6 C 3,9 C 94 % 1029,0 hPa 0,0 l/m 0 min 0 min 0 W/m 10,5 km/h (2 Bft)
09.02.2015 17:50 5,6 C 3,9 C 94 % 1028,9 hPa 0,0 l/m 0 min 0 min 0 W/m 8,4 km/h (2 Bft)
09.02.2015 17:52 5,6 C 3,9 C 94 % 1029,0 hPa 0,0 l/m 0 min 0 min 0 W/m 14,6 km/h (3 Bft)
09.02.2015 17:54 5,6 C 3,9 C 94 % 1029,0 hPa 0,0 l/m 0 min 0 min 0 W/m 10,5 km/h (2 Bft)
09.02.2015 17:56 5,6 C 3,9 C 94 % 1029,0 hPa 0,0 l/m 0 min 2 min 0 W/m 14,6 km/h (3 Bft)
09.02.2015 17:58 5,6 C 3,9 C 94 % 1029,0 hPa 0,0 l/m 0 min 2 min 0 W/m 14,6 km/h (3 Bft)
09.02.2015 18:00 5,6 C 3,9 C 94 % 1029,1 hPa 0,0 l/m 0 min 2 min 0 W/m 12,6 km/h (3 Bft)
09.02.2015 18:02 5,6 C 3,9 C 94 % 1029,1 hPa 0,0 l/m 0 min 2 min 0 W/m 10,5 km/h (2 Bft)
09.02.2015 18:06 5,6 C 3,9 C 94 % 1029,1 hPa 0,0 l/m 0 min 2 min 0 W/m 12,6 km/h (3 Bft)
09.02.2015 18:08 5,5 C 3,9 C 94 % 1029,2 hPa 0,0 l/m 0 min 2 min 0 W/m 14,6 km/h (3 Bft)
09.02.2015 18:10 5,5 C 3,9 C 94 % 1029,2 hPa 0,0 l/m 0 min 2 min 0 W/m 10,5 km/h (2 Bft)
09.02.2015 18:12 5,5 C 3,9 C 94 % 1029,4 hPa 0,2 l/m 0 min 2 min 0 W/m 12,6 km/h (3 Bft)
09.02.2015 18:14 5,5 C 3,9 C 94 % 1029,3 hPa 0,0 l/m 0 min 2 min 0 W/m 10,5 km/h (2 Bft)
09.02.2015 18:16 5,5 C 3,9 C 94 % 1029,3 hPa 0,0 l/m 0 min 2 min 0 W/m 10,5 km/h (2 Bft)
09.02.2015 18:18 5,5 C 3,9 C 94 % 1029,2 hPa 0,0 l/m 0 min 2 min 0 W/m 8,4 km/h (2 Bft)
09.02.2015 18:20 5,5 C 3,9 C 94 % 1029,3 hPa 0,0 l/m 0 min 2 min 0 W/m 10,5 km/h (2 Bft)
09.02.2015 18:22 5,5 C 3,9 C 94 % 1029,3 hPa 0,0 l/m 0 min 2 min 0 W/m 8,4 km/h (2 Bft)
09.02.2015 18:24 5,5 C 3,9 C 94 % 1029,2 hPa 0,0 l/m 0 min 2 min 0 W/m 14,6 km/h (3 Bft)
09.02.2015 18:26 5,4 C 3,9 C 94 % 1029,2 hPa 0,0 l/m 0 min 2 min 0 W/m 10,5 km/h (2 Bft)
09.02.2015 18:28 5,4 C 3,9 C 94 % 1029,2 hPa 0,0 l/m 0 min 2 min 0 W/m 8,4 km/h (2 Bft)
09.02.2015 18:30 5,4 C 3,9 C 94 % 1029,3 hPa 0,0 l/m 0 min 2 min 0 W/m 14,6 km/h (3 Bft)
09.02.2015 18:32 5,4 C 3,9 C 94 % 1029,3 hPa 0,0 l/m 0 min 2 min 0 W/m 10,5 km/h (2 Bft)
09.02.2015 18:34 5,4 C 3,3 C 94 % 1029,3 hPa 0,0 l/m 0 min 0 min 0 W/m 8,4 km/h (2 Bft)
09.02.2015 18:36 5,4 C 3,3 C 94 % 1029,3 hPa 0,0 l/m 0 min 0 min 0 W/m 10,5 km/h (2 Bft)
09.02.2015 18:38 5,4 C 3,3 C 94 % 1029,2 hPa 0,0 l/m 0 min 0 min 0 W/m 14,6 km/h (3 Bft)
09.02.2015 18:40 5,4 C 3,3 C 94 % 1029,2 hPa 0,0 l/m 0 min 0 min 0 W/m 12,6 km/h (3 Bft)
09.02.2015 18:42 5,4 C 3,3 C 94 % 1029,2 hPa 0,0 l/m 0 min 0 min 0 W/m 8,4 km/h (2 Bft)
09.02.2015 18:44 5,4 C 3,3 C 95 % 1029,2 hPa 0,0 l/m 0 min 0 min 0 W/m 8,4 km/h (2 Bft)
09.02.2015 18:46 5,3 C 3,3 C 95 % 1029,1 hPa 0,0 l/m 0 min 0 min 0 W/m 14,6 km/h (3 Bft)
09.02.2015 18:48 5,3 C 3,3 C 95 % 1029,2 hPa 0,0 l/m 0 min 0 min 0 W/m 8,4 km/h (2 Bft)
09.02.2015 18:50 5,3 C 3,3 C 95 % 1029,2 hPa 0,0 l/m 0 min 0 min 0 W/m 8,4 km/h (2 Bft)
09.02.2015 18:52 5,3 C 3,3 C 95 % 1029,2 hPa 0,0 l/m 0 min 0 min 0 W/m 10,5 km/h (2 Bft)
09.02.2015 18:54 5,3 C 3,3 C 95 % 1029,2 hPa 0,0 l/m 0 min 0 min 0 W/m 10,5 km/h (2 Bft)
09.02.2015 18:56 5,3 C 3,3 C 95 % 1029,2 hPa 0,0 l/m 0 min 0 min 0 W/m 6,3 km/h (2 Bft)
09.02.2015 18:58 5,3 C 3,3 C 95 % 1029,2 hPa 0,0 l/m 0 min 0 min 0 W/m 4,2 km/h (1 Bft)
09.02.2015 19:00 5,3 C 3,3 C 95 % 1029,2 hPa 0,0 l/m 0 min 0 min 0 W/m 10,5 km/h (2 Bft)
09.02.2015 19:02 5,2 C 3,3 C 95 % 1029,3 hPa 0,0 l/m 0 min 0 min 0 W/m 8,4 km/h (2 Bft)
09.02.2015 19:04 5,2 C 3,3 C 95 % 1029,1 hPa 0,0 l/m 0 min 0 min 0 W/m 10,5 km/h (2 Bft)
09.02.2015 19:06 5,2 C 3,3 C 95 % 1029,2 hPa 0,0 l/m 0 min 0 min 0 W/m 10,5 km/h (2 Bft)
09.02.2015 19:08 5,2 C 3,3 C 95 % 1029,1 hPa 0,0 l/m 0 min 0 min 0 W/m 10,5 km/h (2 Bft)
09.02.2015 19:10 5,2 C 3,3 C 95 % 1029,1 hPa 0,0 l/m 0 min 0 min 0 W/m 12,6 km/h (3 Bft)
09.02.2015 19:12 5,2 C 3,3 C 95 % 1029,1 hPa 0,0 l/m 0 min 0 min 0 W/m 10,5 km/h (2 Bft)
09.02.2015 19:14 5,2 C 3,9 C 95 % 1029,1 hPa 0,0 l/m 0 min 0 min 0 W/m 10,5 km/h (2 Bft)
09.02.2015 19:16 5,2 C 3,9 C 95 % 1029,1 hPa 0,0 l/m 0 min 0 min 0 W/m 16,7 km/h (3 Bft)
09.02.2015 19:18 5,2 C 3,9 C 95 % 1029,1 hPa 0,0 l/m 0 min 0 min 0 W/m 10,5 km/h (2 Bft)
09.02.2015 19:20 5,2 C 3,3 C 95 % 1029,0 hPa 0,0 l/m 0 min 0 min 0 W/m 12,6 km/h (3 Bft)
09.02.2015 19:22 5,2 C 3,3 C 95 % 1029,0 hPa 0,0 l/m 0 min 0 min 0 W/m 10,5 km/h (2 Bft)
09.02.2015 19:24 5,2 C 3,3 C 95 % 1029,0 hPa 0,0 l/m 0 min 0 min 0 W/m 10,5 km/h (2 Bft)
09.02.2015 19:26 5,2 C 3,3 C 95 % 1028,9 hPa 0,0 l/m 0 min 0 min 0 W/m 10,5 km/h (2 Bft)
09.02.2015 19:28 5,2 C 3,3 C 95 % 1029,0 hPa 0,0 l/m 0 min 0 min 0 W/m 14,6 km/h (3 Bft)
09.02.2015 19:30 5,2 C 3,3 C 95 % 1029,0 hPa 0,0 l/m 0 min 0 min 0 W/m 16,7 km/h (3 Bft)
09.02.2015 19:32 5,2 C 3,3 C 95 % 1029,0 hPa 0,0 l/m 0 min 0 min 0 W/m 18,8 km/h (3 Bft)
09.02.2015 19:34 5,1 C 3,3 C 95 % 1029,0 hPa 0,0 l/m 0 min 0 min 0 W/m 12,6 km/h (3 Bft)
09.02.2015 19:36 5,1 C 3,3 C 95 % 1029,1 hPa 0,0 l/m 0 min 0 min 0 W/m 16,7 km/h (3 Bft)
09.02.2015 19:38 5,1 C 3,3 C 95 % 1029,1 hPa 0,0 l/m 0 min 0 min 0 W/m 16,7 km/h (3 Bft)
09.02.2015 19:40 5,1 C 3,3 C 95 % 1029,2 hPa 0,0 l/m 0 min 0 min 0 W/m 12,6 km/h (3 Bft)
09.02.2015 19:42 5,1 C 3,3 C 95 % 1029,2 hPa 0,0 l/m 0 min 0 min 0 W/m 16,7 km/h (3 Bft)
09.02.2015 19:44 5,1 C 3,3 C 95 % 1029,3 hPa 0,0 l/m 0 min 0 min 0 W/m 12,6 km/h (3 Bft)
09.02.2015 19:46 5,1 C 3,3 C 95 % 1029,3 hPa 0,0 l/m 0 min 0 min 0 W/m 18,8 km/h (3 Bft)
09.02.2015 19:48 5,1 C 3,3 C 95 % 1029,3 hPa 0,0 l/m 0 min 0 min 0 W/m 18,8 km/h (3 Bft)
09.02.2015 19:50 5,1 C 3,3 C 95 % 1029,3 hPa 0,0 l/m 0 min 0 min 0 W/m 20,9 km/h (4 Bft)
09.02.2015 19:52 5,1 C 3,3 C 95 % 1029,3 hPa 0,0 l/m 0 min 0 min 0 W/m 16,7 km/h (3 Bft)
09.02.2015 19:54 5,1 C 3,3 C 95 % 1029,4 hPa 0,0 l/m 0 min 0 min 0 W/m 14,6 km/h (3 Bft)
09.02.2015 19:56 5,1 C 3,3 C 95 % 1029,4 hPa 0,0 l/m 0 min 2 min 0 W/m 12,6 km/h (3 Bft)
09.02.2015 19:58 5,1 C 3,3 C 95 % 1029,4 hPa 0,0 l/m 0 min 2 min 0 W/m 16,7 km/h (3 Bft)
09.02.2015 20:00 5,1 C 3,3 C 95 % 1029,5 hPa 0,0 l/m 0 min 0 min 0 W/m 14,6 km/h (3 Bft)
09.02.2015 20:02 5,1 C 3,3 C 95 % 1029,5 hPa 0,0 l/m 0 min 0 min 0 W/m 12,6 km/h (3 Bft)
09.02.2015 20:04 5,1 C 3,3 C 95 % 1029,5 hPa 0,0 l/m 0 min 2 min 0 W/m 14,6 km/h (3 Bft)
09.02.2015 20:06 5,1 C 3,3 C 95 % 1029,5 hPa 0,0 l/m 0 min 2 min 0 W/m 14,6 km/h (3 Bft)
09.02.2015 20:08 5,1 C 3,3 C 96 % 1029,6 hPa 0,0 l/m 0 min 2 min 0 W/m 12,6 km/h (3 Bft)
09.02.2015 20:10 5,1 C 3,3 C 96 % 1029,6 hPa 0,0 l/m 0 min 2 min 0 W/m 12,6 km/h (3 Bft)
09.02.2015 20:12 5,1 C 3,3 C 96 % 1029,6 hPa 0,0 l/m 0 min 2 min 0 W/m 16,7 km/h (3 Bft)
09.02.2015 20:14 5,1 C 3,9 C 96 % 1029,6 hPa 0,0 l/m 0 min 2 min 0 W/m 12,6 km/h (3 Bft)
09.02.2015 20:16 5,1 C 3,3 C 96 % 1029,7 hPa 0,0 l/m 0 min 2 min 0 W/m 14,6 km/h (3 Bft)
09.02.2015 20:18 5,1 C 3,3 C 96 % 1029,7 hPa 0,0 l/m 0 min 2 min 0 W/m 12,6 km/h (3 Bft)
09.02.2015 20:20 5,1 C 3,3 C 96 % 1029,6 hPa 0,0 l/m 0 min 2 min 0 W/m 10,5 km/h (2 Bft)
09.02.2015 20:22 5,1 C 3,3 C 96 % 1029,7 hPa 0,0 l/m 0 min 2 min 0 W/m 12,6 km/h (3 Bft)
09.02.2015 20:24 5,1 C 3,3 C 96 % 1029,7 hPa 0,0 l/m 0 min 2 min 0 W/m 10,5 km/h (2 Bft)
09.02.2015 20:26 5,1 C 3,3 C 96 % 1029,7 hPa 0,0 l/m 0 min 2 min 0 W/m 12,6 km/h (3 Bft)
09.02.2015 20:28 5,1 C 3,3 C 96 % 1029,7 hPa 0,0 l/m 0 min 0 min 0 W/m 12,6 km/h (3 Bft)
09.02.2015 20:30 5,1 C 3,3 C 96 % 1029,7 hPa 0,0 l/m 0 min 0 min 0 W/m 14,6 km/h (3 Bft)
09.02.2015 20:32 5,1 C 3,3 C 96 % 1029,7 hPa 0,0 l/m 0 min 0 min 0 W/m 18,8 km/h (3 Bft)
09.02.2015 20:34 5,1 C 3,3 C 96 % 1029,7 hPa 0,0 l/m 0 min 0 min 0 W/m 20,9 km/h (4 Bft)
09.02.2015 20:36 5,1 C 3,3 C 96 % 1029,8 hPa 0,0 l/m 0 min 0 min 0 W/m 16,7 km/h (3 Bft)
09.02.2015 20:38 5,1 C 3,3 C 96 % 1029,8 hPa 0,0 l/m 0 min 0 min 0 W/m 18,8 km/h (3 Bft)
09.02.2015 20:40 5,1 C 3,3 C 96 % 1029,8 hPa 0,0 l/m 0 min 0 min 0 W/m 14,6 km/h (3 Bft)
09.02.2015 20:42 5,1 C 3,3 C 96 % 1029,9 hPa 0,0 l/m 0 min 0 min 0 W/m 10,5 km/h (2 Bft)
09.02.2015 20:44 5,1 C 3,3 C 96 % 1029,9 hPa 0,0 l/m 0 min 0 min 0 W/m 12,6 km/h (3 Bft)
09.02.2015 20:46 5,0 C 3,3 C 96 % 1029,9 hPa 0,0 l/m 0 min 0 min 0 W/m 18,8 km/h (3 Bft)
09.02.2015 20:48 5,0 C 3,3 C 96 % 1029,9 hPa 0,0 l/m 0 min 0 min 0 W/m 12,6 km/h (3 Bft)
09.02.2015 20:50 5,0 C 3,3 C 96 % 1029,8 hPa 0,0 l/m 0 min 0 min 0 W/m 8,4 km/h (2 Bft)
09.02.2015 20:52 5,0 C 3,3 C 96 % 1029,9 hPa 0,0 l/m 0 min 0 min 0 W/m 12,6 km/h (3 Bft)
09.02.2015 20:54 5,0 C 3,3 C 96 % 1029,9 hPa 0,0 l/m 0 min 0 min 0 W/m 12,6 km/h (3 Bft)
09.02.2015 20:56 5,0 C 3,3 C 96 % 1029,8 hPa 0,0 l/m 0 min 0 min 0 W/m 8,4 km/h (2 Bft)
09.02.2015 20:58 5,0 C 3,3 C 96 % 1029,8 hPa 0,0 l/m 0 min 0 min 0 W/m 12,6 km/h (3 Bft)
09.02.2015 21:00 5,0 C 3,3 C 96 % 1029,8 hPa 0,0 l/m 0 min 0 min 0 W/m 14,6 km/h (3 Bft)
09.02.2015 21:02 5,0 C 3,3 C 96 % 1029,9 hPa 0,0 l/m 0 min 0 min 0 W/m 18,8 km/h (3 Bft)
09.02.2015 21:04 5,0 C 3,3 C 96 % 1029,9 hPa 0,0 l/m 0 min 0 min 0 W/m 12,6 km/h (3 Bft)
09.02.2015 21:06 4,9 C 3,3 C 96 % 1029,9 hPa 0,0 l/m 0 min 0 min 0 W/m 8,4 km/h (2 Bft)
09.02.2015 21:08 5,0 C 3,3 C 96 % 1029,9 hPa 0,0 l/m 0 min 0 min 0 W/m 16,7 km/h (3 Bft)
09.02.2015 21:10 4,9 C 3,3 C 96 % 1029,9 hPa 0,0 l/m 0 min 0 min 0 W/m 16,7 km/h (3 Bft)
09.02.2015 21:12 4,9 C 3,3 C 96 % 1030,0 hPa 0,0 l/m 0 min 0 min 0 W/m 12,6 km/h (3 Bft)
09.02.2015 21:14 4,9 C 3,3 C 96 % 1030,0 hPa 0,0 l/m 0 min 0 min 0 W/m 12,6 km/h (3 Bft)
09.02.2015 21:16 4,9 C 3,3 C 96 % 1030,0 hPa 0,0 l/m 0 min 2 min 0 W/m 12,6 km/h (3 Bft)
09.02.2015 21:18 4,9 C 3,3 C 96 % 1030,0 hPa 0,0 l/m 0 min 2 min 0 W/m 12,6 km/h (3 Bft)
09.02.2015 21:20 4,9 C 3,3 C 96 % 1030,0 hPa 0,0 l/m 0 min 2 min 0 W/m 16,7 km/h (3 Bft)
09.02.2015 21:22 4,9 C 3,3 C 96 % 1030,0 hPa 0,0 l/m 0 min 2 min 0 W/m 12,6 km/h (3 Bft)
09.02.2015 21:24 4,9 C 3,3 C 96 % 1030,0 hPa 0,0 l/m 0 min 2 min 0 W/m 10,5 km/h (2 Bft)
09.02.2015 21:26 4,9 C 3,3 C 96 % 1029,9 hPa 0,0 l/m 0 min 0 min 0 W/m 12,6 km/h (3 Bft)
09.02.2015 21:28 4,9 C 3,3 C 96 % 1030,0 hPa 0,0 l/m 0 min 0 min 0 W/m 12,6 km/h (3 Bft)
09.02.2015 21:30 4,9 C 3,3 C 96 % 1030,0 hPa 0,0 l/m 0 min 0 min 0 W/m 10,5 km/h (2 Bft)
09.02.2015 21:32 4,9 C 3,3 C 96 % 1030,1 hPa 0,0 l/m 0 min 0 min 0 W/m 8,4 km/h (2 Bft)
09.02.2015 21:34 4,9 C 3,3 C 96 % 1030,0 hPa 0,0 l/m 0 min 0 min 0 W/m 12,6 km/h (3 Bft)
09.02.2015 21:36 4,9 C 3,3 C 96 % 1030,1 hPa 0,0 l/m 0 min 0 min 0 W/m 12,6 km/h (3 Bft)
09.02.2015 21:38 4,9 C 3,3 C 96 % 1030,1 hPa 0,0 l/m 0 min 0 min 0 W/m 10,5 km/h (2 Bft)
09.02.2015 21:40 4,9 C 3,3 C 96 % 1030,1 hPa 0,0 l/m 0 min 0 min 0 W/m 10,5 km/h (2 Bft)
09.02.2015 21:42 4,9 C 3,3 C 96 % 1030,0 hPa 0,0 l/m 0 min 0 min 0 W/m 8,4 km/h (2 Bft)
09.02.2015 21:44 4,9 C 3,3 C 96 % 1030,1 hPa 0,0 l/m 0 min 0 min 0 W/m 16,7 km/h (3 Bft)
09.02.2015 21:46 4,9 C 3,3 C 96 % 1030,0 hPa 0,0 l/m 0 min 0 min 0 W/m 16,7 km/h (3 Bft)
09.02.2015 21:48 4,9 C 3,3 C 96 % 1030,0 hPa 0,0 l/m 0 min 0 min 0 W/m 8,4 km/h (2 Bft)
09.02.2015 21:50 4,9 C 3,3 C 96 % 1030,0 hPa 0,0 l/m 0 min 0 min 0 W/m 12,6 km/h (3 Bft)
09.02.2015 21:52 4,9 C 3,3 C 96 % 1030,1 hPa 0,0 l/m 0 min 0 min 0 W/m 12,6 km/h (3 Bft)
09.02.2015 21:54 4,9 C 3,3 C 96 % 1030,1 hPa 0,0 l/m 0 min 2 min 0 W/m 12,6 km/h (3 Bft)
09.02.2015 21:56 4,9 C 3,3 C 96 % 1030,1 hPa 0,0 l/m 0 min 2 min 0 W/m 14,6 km/h (3 Bft)
09.02.2015 21:58 4,9 C 3,3 C 96 % 1030,1 hPa 0,0 l/m 0 min 0 min 0 W/m 8,4 km/h (2 Bft)
09.02.2015 22:00 4,9 C 3,3 C 96 % 1030,1 hPa 0,0 l/m 0 min 0 min 0 W/m 12,6 km/h (3 Bft)
09.02.2015 22:02 4,9 C 3,3 C 96 % 1030,0 hPa 0,0 l/m 0 min 0 min 0 W/m 16,7 km/h (3 Bft)
09.02.2015 22:04 4,9 C 3,3 C 96 % 1030,0 hPa 0,0 l/m 0 min 0 min 0 W/m 16,7 km/h (3 Bft)
09.02.2015 22:06 4,9 C 3,3 C 96 % 1030,0 hPa 0,0 l/m 0 min 0 min 0 W/m 12,6 km/h (3 Bft)
09.02.2015 22:08 4,9 C 3,3 C 96 % 1030,0 hPa 0,0 l/m 0 min 0 min 0 W/m 16,7 km/h (3 Bft)
09.02.2015 22:10 4,9 C 3,3 C 96 % 1030,0 hPa 0,0 l/m 0 min 0 min 0 W/m 16,7 km/h (3 Bft)
09.02.2015 22:12 4,9 C 3,3 C 96 % 1030,1 hPa 0,0 l/m 0 min 0 min 0 W/m 10,5 km/h (2 Bft)
09.02.2015 22:14 4,9 C 3,3 C 96 % 1030,0 hPa 0,0 l/m 0 min 0 min 0 W/m 14,6 km/h (3 Bft)
09.02.2015 22:16 4,9 C 3,3 C 96 % 1030,0 hPa 0,0 l/m 0 min 0 min 0 W/m 12,6 km/h (3 Bft)
09.02.2015 22:18 4,9 C 3,3 C 97 % 1030,0 hPa 0,0 l/m 0 min 0 min 0 W/m 10,5 km/h (2 Bft)
09.02.2015 22:20 4,9 C 3,3 C 97 % 1030,0 hPa 0,0 l/m 0 min 0 min 0 W/m 10,5 km/h (2 Bft)
09.02.2015 22:22 4,9 C 3,3 C 97 % 1030,0 hPa 0,0 l/m 0 min 0 min 0 W/m 8,4 km/h (2 Bft)
09.02.2015 22:24 4,9 C 3,3 C 97 % 1030,0 hPa 0,2 l/m 0 min 0 min 0 W/m 8,4 km/h (2 Bft)
09.02.2015 22:26 4,9 C 3,3 C 97 % 1030,1 hPa 0,0 l/m 0 min 0 min 0 W/m 6,3 km/h (2 Bft)
09.02.2015 22:28 4,9 C 3,3 C 97 % 1030,1 hPa 0,0 l/m 0 min 2 min 0 W/m 12,6 km/h (3 Bft)
09.02.2015 22:30 4,9 C 3,3 C 97 % 1030,0 hPa 0,0 l/m 0 min 0 min 0 W/m 8,4 km/h (2 Bft)
09.02.2015 22:32 4,9 C 3,3 C 97 % 1030,0 hPa 0,0 l/m 0 min 0 min 0 W/m 10,5 km/h (2 Bft)
09.02.2015 22:34 4,9 C 3,3 C 97 % 1030,1 hPa 0,0 l/m 0 min 0 min 0 W/m 10,5 km/h (2 Bft)
09.02.2015 22:36 4,9 C 3,3 C 97 % 1030,1 hPa 0,0 l/m 0 min 0 min 0 W/m 12,6 km/h (3 Bft)
09.02.2015 22:38 4,9 C 3,3 C 97 % 1030,1 hPa 0,0 l/m 0 min 0 min 0 W/m 12,6 km/h (3 Bft)
09.02.2015 22:40 4,9 C 3,3 C 97 % 1030,1 hPa 0,0 l/m 0 min 0 min 0 W/m 12,6 km/h (3 Bft)
09.02.2015 22:42 4,9 C 3,3 C 97 % 1030,0 hPa 0,0 l/m 0 min 0 min 0 W/m 8,4 km/h (2 Bft)
09.02.2015 22:44 4,9 C 3,3 C 97 % 1030,0 hPa 0,0 l/m 0 min 0 min 0 W/m 12,6 km/h (3 Bft)
09.02.2015 22:46 4,9 C 3,3 C 97 % 1030,1 hPa 0,0 l/m 0 min 0 min 0 W/m 12,6 km/h (3 Bft)
09.02.2015 22:48 4,9 C 3,3 C 97 % 1030,0 hPa 0,0 l/m 0 min 0 min 0 W/m 12,6 km/h (3 Bft)
09.02.2015 22:50 4,9 C 3,3 C 97 % 1030,0 hPa 0,0 l/m 0 min 0 min 0 W/m 12,6 km/h (3 Bft)
09.02.2015 22:52 4,9 C 3,3 C 97 % 1030,0 hPa 0,0 l/m 0 min 0 min 0 W/m 12,6 km/h (3 Bft)
09.02.2015 22:54 4,9 C 3,3 C 97 % 1030,0 hPa 0,0 l/m 0 min 0 min 0 W/m 14,6 km/h (3 Bft)
09.02.2015 22:56 4,9 C 3,3 C 97 % 1030,1 hPa 0,0 l/m 0 min 0 min 0 W/m 12,6 km/h (3 Bft)
09.02.2015 22:58 4,9 C 3,3 C 97 % 1030,0 hPa 0,0 l/m 0 min 0 min 0 W/m 12,6 km/h (3 Bft)
09.02.2015 23:00 4,8 C 3,3 C 97 % 1030,1 hPa 0,0 l/m 0 min 0 min 0 W/m 10,5 km/h (2 Bft)
09.02.2015 23:02 4,8 C 3,3 C 97 % 1030,0 hPa 0,0 l/m 0 min 0 min 0 W/m 12,6 km/h (3 Bft)
09.02.2015 23:04 4,8 C 3,3 C 97 % 1030,0 hPa 0,0 l/m 0 min 0 min 0 W/m 12,6 km/h (3 Bft)
09.02.2015 23:06 4,8 C 3,3 C 97 % 1030,0 hPa 0,0 l/m 0 min 0 min 0 W/m 10,5 km/h (2 Bft)
09.02.2015 23:08 4,8 C 3,3 C 97 % 1030,0 hPa 0,0 l/m 0 min 0 min 0 W/m 8,4 km/h (2 Bft)
09.02.2015 23:10 4,8 C 3,3 C 97 % 1030,0 hPa 0,0 l/m 0 min 0 min 0 W/m 10,5 km/h (2 Bft)
09.02.2015 23:12 4,8 C 3,3 C 97 % 1030,0 hPa 0,0 l/m 0 min 0 min 0 W/m 8,4 km/h (2 Bft)
09.02.2015 23:14 4,8 C 3,3 C 97 % 1030,0 hPa 0,0 l/m 0 min 0 min 0 W/m 6,3 km/h (2 Bft)
09.02.2015 23:16 4,8 C 3,3 C 97 % 1030,0 hPa 0,0 l/m 0 min 0 min 0 W/m 12,6 km/h (3 Bft)
09.02.2015 23:18 4,8 C 3,3 C 97 % 1030,0 hPa 0,0 l/m 0 min 0 min 0 W/m 10,5 km/h (2 Bft)
09.02.2015 23:20 4,8 C 3,3 C 97 % 1030,0 hPa 0,0 l/m 0 min 0 min 0 W/m 6,3 km/h (2 Bft)
09.02.2015 23:22 4,8 C 3,3 C 97 % 1030,0 hPa 0,0 l/m 0 min 0 min 0 W/m 10,5 km/h (2 Bft)
09.02.2015 23:24 4,8 C 3,3 C 97 % 1030,0 hPa 0,0 l/m 0 min 0 min 0 W/m 8,4 km/h (2 Bft)
09.02.2015 23:26 4,8 C 3,3 C 97 % 1030,1 hPa 0,0 l/m 0 min 0 min 0 W/m 8,4 km/h (2 Bft)
09.02.2015 23:28 4,8 C 3,3 C 97 % 1030,0 hPa 0,0 l/m 0 min 0 min 0 W/m 8,4 km/h (2 Bft)
09.02.2015 23:30 4,8 C 3,3 C 97 % 1030,0 hPa 0,0 l/m 0 min 0 min 0 W/m 12,6 km/h (3 Bft)
09.02.2015 23:32 4,8 C 3,3 C 97 % 1030,0 hPa 0,0 l/m 0 min 0 min 0 W/m 10,5 km/h (2 Bft)
09.02.2015 23:34 4,8 C 3,3 C 97 % 1030,0 hPa 0,0 l/m 0 min 0 min 0 W/m 10,5 km/h (2 Bft)
09.02.2015 23:36 4,8 C 3,3 C 97 % 1030,1 hPa 0,0 l/m 0 min 0 min 0 W/m 8,4 km/h (2 Bft)
09.02.2015 23:38 4,8 C 3,3 C 97 % 1030,1 hPa 0,0 l/m 0 min 0 min 0 W/m 10,5 km/h (2 Bft)
09.02.2015 23:40 4,8 C 3,3 C 97 % 1030,2 hPa 0,0 l/m 0 min 0 min 0 W/m 6,3 km/h (2 Bft)
09.02.2015 23:42 4,8 C 3,3 C 97 % 1030,2 hPa 0,0 l/m 0 min 0 min 0 W/m 6,3 km/h (2 Bft)
09.02.2015 23:44 4,9 C 3,3 C 97 % 1030,1 hPa 0,0 l/m 0 min 0 min 0 W/m 10,5 km/h (2 Bft)
09.02.2015 23:46 4,8 C 3,3 C 97 % 1030,1 hPa 0,0 l/m 0 min 0 min 0 W/m 12,6 km/h (3 Bft)
09.02.2015 23:48 4,8 C 3,3 C 97 % 1030,1 hPa 0,0 l/m 0 min 0 min 0 W/m 10,5 km/h (2 Bft)
09.02.2015 23:50 4,8 C 3,3 C 97 % 1030,1 hPa 0,0 l/m 0 min 0 min 0 W/m 10,5 km/h (2 Bft)
09.02.2015 23:52 4,8 C 3,3 C 97 % 1030,1 hPa 0,0 l/m 0 min 0 min 0 W/m 10,5 km/h (2 Bft)
09.02.2015 23:54 4,8 C 3,3 C 97 % 1030,1 hPa 0,0 l/m 0 min 0 min 0 W/m 6,3 km/h (2 Bft)
09.02.2015 23:56 4,8 C 3,3 C 97 % 1030,0 hPa 0,0 l/m 0 min 0 min 0 W/m 8,4 km/h (2 Bft)
09.02.2015 23:58 4,8 C 3,3 C 97 % 1030,1 hPa 0,0 l/m 0 min 0 min 0 W/m 6,3 km/h (2 Bft)
_ Min-Zeit 00:00 00:00 00:00 14:02 - - - - 02:44
Minimum _ 2,4 C 1,1 C 91 % 1028,1 hPa - - - - 4,2 km/h (1 Bft)
_ Max-Zeit 14:44 13:46 22:18 00:02 18:12 00:00 00:24 13:44 13:30
Maximum _ 6,2 C 6,1 C 97 % 1031,2 hPa 0,2 l/m 0 min 2 min 170 W/m 33,5 km/h
W-NW (5 Bft)
Durchschnitt _ 4,5 C 3,2 C 95 % 1029,4 hPa #0,4 l/m #0 min. #1:34 h 55 W/m 14,6 km/h (3 Bft)
© 2015 W. Hausmann